<?xml version="1.0" encoding="UTF-8" standalone="no" ?>
<gpx xmlns="http://www.topografix.com/GPX/1/1" xmlns:xsi="http://www.w3.org/2001/XMLSchema-instance" xsi:schemaLocation="http://www.topografix.com/GPX/1/1 http://www.topografix.com/GPX/1/1/gpx.xsd" version="1.1" creator="VisuGPX - https://www.visugpx.com">
  <metadata>
    <name>SaintExpress 2018</name>
    <desc><![CDATA[Parcours de la SaintExpress téléchargé le 12/10 sur le site officiel pour vérifier le dénivelé annoncé à 1400m qui paraissait très étrange ! Effectivement il est d'environ 850m D+.
]]></desc>
  </metadata>
  <trk>
    <name><![CDATA[9162965-STL18_44km]]></name>
    <trkseg>
      <trkpt lat="45.59566" lon="4.56729">
        <ele>693</ele>
        <time>2018-09-26T18:12:36Z</time>
      </trkpt>
      <trkpt lat="45.59576" lon="4.56752">
        <ele>692</ele>
        <time>2018-09-26T18:13:36Z</time>
      </trkpt>
      <trkpt lat="45.59582" lon="4.56771">
        <ele>691</ele>
        <time>2018-09-26T18:14:36Z</time>
      </trkpt>
      <trkpt lat="45.59594" lon="4.56792">
        <ele>691</ele>
        <time>2018-09-26T18:15:36Z</time>
      </trkpt>
      <trkpt lat="45.59585" lon="4.56834">
        <ele>692</ele>
        <time>2018-09-26T18:16:36Z</time>
      </trkpt>
      <trkpt lat="45.59597" lon="4.5689">
        <ele>692</ele>
        <time>2018-09-26T18:17:36Z</time>
      </trkpt>
      <trkpt lat="45.596" lon="4.56936">
        <ele>693</ele>
        <time>2018-09-26T18:18:36Z</time>
      </trkpt>
      <trkpt lat="45.59606" lon="4.56973">
        <ele>693</ele>
        <time>2018-09-26T18:19:36Z</time>
      </trkpt>
      <trkpt lat="45.59614" lon="4.57001">
        <ele>694</ele>
        <time>2018-09-26T18:20:36Z</time>
      </trkpt>
      <trkpt lat="45.5963" lon="4.5703">
        <ele>694</ele>
        <time>2018-09-26T18:21:36Z</time>
      </trkpt>
      <trkpt lat="45.59653" lon="4.57053">
        <ele>693</ele>
        <time>2018-09-26T18:22:36Z</time>
      </trkpt>
      <trkpt lat="45.59698" lon="4.57094">
        <ele>693</ele>
        <time>2018-09-26T18:23:36Z</time>
      </trkpt>
      <trkpt lat="45.59733" lon="4.5711">
        <ele>692</ele>
        <time>2018-09-26T18:24:36Z</time>
      </trkpt>
      <trkpt lat="45.59779" lon="4.57118">
        <ele>691</ele>
        <time>2018-09-26T18:25:36Z</time>
      </trkpt>
      <trkpt lat="45.59798" lon="4.57115">
        <ele>692</ele>
        <time>2018-09-26T18:26:36Z</time>
      </trkpt>
      <trkpt lat="45.59823" lon="4.57097">
        <ele>693</ele>
        <time>2018-09-26T18:27:36Z</time>
      </trkpt>
      <trkpt lat="45.59848" lon="4.57084">
        <ele>695</ele>
        <time>2018-09-26T18:28:36Z</time>
      </trkpt>
      <trkpt lat="45.5987" lon="4.57078">
        <ele>696</ele>
        <time>2018-09-26T18:29:36Z</time>
      </trkpt>
      <trkpt lat="45.59934" lon="4.57098">
        <ele>696</ele>
        <time>2018-09-26T18:30:36Z</time>
      </trkpt>
      <trkpt lat="45.5996" lon="4.57174">
        <ele>694</ele>
        <time>2018-09-26T18:31:36Z</time>
      </trkpt>
      <trkpt lat="45.5996" lon="4.57174">
        <ele>694</ele>
        <time>2018-09-26T18:32:36Z</time>
      </trkpt>
      <trkpt lat="45.59968" lon="4.57217">
        <ele>693</ele>
        <time>2018-09-26T18:33:36Z</time>
      </trkpt>
      <trkpt lat="45.5997" lon="4.57249">
        <ele>691</ele>
        <time>2018-09-26T18:34:36Z</time>
      </trkpt>
      <trkpt lat="45.5997" lon="4.57286">
        <ele>688</ele>
        <time>2018-09-26T18:35:36Z</time>
      </trkpt>
      <trkpt lat="45.59972" lon="4.57307">
        <ele>688</ele>
        <time>2018-09-26T18:36:36Z</time>
      </trkpt>
      <trkpt lat="45.59984" lon="4.57346">
        <ele>690</ele>
        <time>2018-09-26T18:37:36Z</time>
      </trkpt>
      <trkpt lat="45.59995" lon="4.57382">
        <ele>693</ele>
        <time>2018-09-26T18:38:36Z</time>
      </trkpt>
      <trkpt lat="45.60001" lon="4.57414">
        <ele>694</ele>
        <time>2018-09-26T18:39:36Z</time>
      </trkpt>
      <trkpt lat="45.60002" lon="4.57415">
        <ele>694</ele>
        <time>2018-09-26T18:40:36Z</time>
      </trkpt>
      <trkpt lat="45.60006" lon="4.57458">
        <ele>693</ele>
        <time>2018-09-26T18:41:36Z</time>
      </trkpt>
      <trkpt lat="45.6001" lon="4.57497">
        <ele>692</ele>
        <time>2018-09-26T18:42:36Z</time>
      </trkpt>
      <trkpt lat="45.60014" lon="4.57522">
        <ele>690</ele>
        <time>2018-09-26T18:43:36Z</time>
      </trkpt>
      <trkpt lat="45.60022" lon="4.57553">
        <ele>689</ele>
        <time>2018-09-26T18:44:36Z</time>
      </trkpt>
      <trkpt lat="45.60029" lon="4.57576">
        <ele>688</ele>
        <time>2018-09-26T18:45:36Z</time>
      </trkpt>
      <trkpt lat="45.60065" lon="4.57643">
        <ele>691</ele>
        <time>2018-09-26T18:46:36Z</time>
      </trkpt>
      <trkpt lat="45.60081" lon="4.57672">
        <ele>692</ele>
        <time>2018-09-26T18:47:36Z</time>
      </trkpt>
      <trkpt lat="45.60095" lon="4.57702">
        <ele>693</ele>
        <time>2018-09-26T18:48:36Z</time>
      </trkpt>
      <trkpt lat="45.601" lon="4.57726">
        <ele>691</ele>
        <time>2018-09-26T18:49:36Z</time>
      </trkpt>
      <trkpt lat="45.60104" lon="4.57755">
        <ele>689</ele>
        <time>2018-09-26T18:50:36Z</time>
      </trkpt>
      <trkpt lat="45.60103" lon="4.57783">
        <ele>690</ele>
        <time>2018-09-26T18:51:36Z</time>
      </trkpt>
      <trkpt lat="45.60095" lon="4.57801">
        <ele>688</ele>
        <time>2018-09-26T18:52:36Z</time>
      </trkpt>
      <trkpt lat="45.60075" lon="4.57828">
        <ele>682</ele>
        <time>2018-09-26T18:53:36Z</time>
      </trkpt>
      <trkpt lat="45.60066" lon="4.57848">
        <ele>682</ele>
        <time>2018-09-26T18:54:36Z</time>
      </trkpt>
      <trkpt lat="45.60061" lon="4.57875">
        <ele>684</ele>
        <time>2018-09-26T18:55:36Z</time>
      </trkpt>
      <trkpt lat="45.60062" lon="4.57903">
        <ele>688</ele>
        <time>2018-09-26T18:56:36Z</time>
      </trkpt>
      <trkpt lat="45.60065" lon="4.5793">
        <ele>692</ele>
        <time>2018-09-26T18:57:36Z</time>
      </trkpt>
      <trkpt lat="45.60072" lon="4.57957">
        <ele>697</ele>
        <time>2018-09-26T18:58:36Z</time>
      </trkpt>
      <trkpt lat="45.60076" lon="4.57972">
        <ele>700</ele>
        <time>2018-09-26T18:59:36Z</time>
      </trkpt>
      <trkpt lat="45.60079" lon="4.5806">
        <ele>701</ele>
        <time>2018-09-26T19:00:36Z</time>
      </trkpt>
      <trkpt lat="45.60087" lon="4.58083">
        <ele>703</ele>
        <time>2018-09-26T19:01:36Z</time>
      </trkpt>
      <trkpt lat="45.60091" lon="4.58175">
        <ele>707</ele>
        <time>2018-09-26T19:02:36Z</time>
      </trkpt>
      <trkpt lat="45.60116" lon="4.58323">
        <ele>710</ele>
        <time>2018-09-26T19:03:36Z</time>
      </trkpt>
      <trkpt lat="45.60133" lon="4.58235">
        <ele>721</ele>
        <time>2018-09-26T19:04:36Z</time>
      </trkpt>
      <trkpt lat="45.60139" lon="4.58196">
        <ele>723</ele>
        <time>2018-09-26T19:05:36Z</time>
      </trkpt>
      <trkpt lat="45.60144" lon="4.58168">
        <ele>725</ele>
        <time>2018-09-26T19:06:36Z</time>
      </trkpt>
      <trkpt lat="45.60147" lon="4.58145">
        <ele>726</ele>
        <time>2018-09-26T19:07:36Z</time>
      </trkpt>
      <trkpt lat="45.60149" lon="4.58124">
        <ele>727</ele>
        <time>2018-09-26T19:08:36Z</time>
      </trkpt>
      <trkpt lat="45.60154" lon="4.58105">
        <ele>730</ele>
        <time>2018-09-26T19:09:36Z</time>
      </trkpt>
      <trkpt lat="45.60157" lon="4.58085">
        <ele>731</ele>
        <time>2018-09-26T19:10:36Z</time>
      </trkpt>
      <trkpt lat="45.60159" lon="4.5806">
        <ele>733</ele>
        <time>2018-09-26T19:11:36Z</time>
      </trkpt>
      <trkpt lat="45.60163" lon="4.58038">
        <ele>736</ele>
        <time>2018-09-26T19:12:36Z</time>
      </trkpt>
      <trkpt lat="45.60166" lon="4.58022">
        <ele>738</ele>
        <time>2018-09-26T19:13:36Z</time>
      </trkpt>
      <trkpt lat="45.6017" lon="4.58011">
        <ele>740</ele>
        <time>2018-09-26T19:14:36Z</time>
      </trkpt>
      <trkpt lat="45.60176" lon="4.58005">
        <ele>741</ele>
        <time>2018-09-26T19:15:36Z</time>
      </trkpt>
      <trkpt lat="45.60183" lon="4.57995">
        <ele>742</ele>
        <time>2018-09-26T19:16:36Z</time>
      </trkpt>
      <trkpt lat="45.60193" lon="4.57991">
        <ele>743</ele>
        <time>2018-09-26T19:17:36Z</time>
      </trkpt>
      <trkpt lat="45.60202" lon="4.57985">
        <ele>745</ele>
        <time>2018-09-26T19:18:36Z</time>
      </trkpt>
      <trkpt lat="45.6021" lon="4.57975">
        <ele>746</ele>
        <time>2018-09-26T19:19:36Z</time>
      </trkpt>
      <trkpt lat="45.60218" lon="4.57961">
        <ele>746</ele>
        <time>2018-09-26T19:20:36Z</time>
      </trkpt>
      <trkpt lat="45.60225" lon="4.57946">
        <ele>747</ele>
        <time>2018-09-26T19:21:36Z</time>
      </trkpt>
      <trkpt lat="45.60233" lon="4.57924">
        <ele>748</ele>
        <time>2018-09-26T19:22:36Z</time>
      </trkpt>
      <trkpt lat="45.6024" lon="4.57882">
        <ele>748</ele>
        <time>2018-09-26T19:23:36Z</time>
      </trkpt>
      <trkpt lat="45.60243" lon="4.57857">
        <ele>749</ele>
        <time>2018-09-26T19:24:36Z</time>
      </trkpt>
      <trkpt lat="45.60245" lon="4.57836">
        <ele>749</ele>
        <time>2018-09-26T19:25:36Z</time>
      </trkpt>
      <trkpt lat="45.60244" lon="4.57813">
        <ele>750</ele>
        <time>2018-09-26T19:26:36Z</time>
      </trkpt>
      <trkpt lat="45.60242" lon="4.578">
        <ele>750</ele>
        <time>2018-09-26T19:27:36Z</time>
      </trkpt>
      <trkpt lat="45.60242" lon="4.5779">
        <ele>750</ele>
        <time>2018-09-26T19:28:36Z</time>
      </trkpt>
      <trkpt lat="45.60244" lon="4.57784">
        <ele>751</ele>
        <time>2018-09-26T19:29:36Z</time>
      </trkpt>
      <trkpt lat="45.60247" lon="4.57787">
        <ele>752</ele>
        <time>2018-09-26T19:30:36Z</time>
      </trkpt>
      <trkpt lat="45.60248" lon="4.57798">
        <ele>752</ele>
        <time>2018-09-26T19:31:36Z</time>
      </trkpt>
      <trkpt lat="45.60251" lon="4.57813">
        <ele>752</ele>
        <time>2018-09-26T19:32:36Z</time>
      </trkpt>
      <trkpt lat="45.60292" lon="4.57918">
        <ele>758</ele>
        <time>2018-09-26T19:33:36Z</time>
      </trkpt>
      <trkpt lat="45.603" lon="4.57937">
        <ele>759</ele>
        <time>2018-09-26T19:34:36Z</time>
      </trkpt>
      <trkpt lat="45.6031" lon="4.57979">
        <ele>761</ele>
        <time>2018-09-26T19:35:36Z</time>
      </trkpt>
      <trkpt lat="45.60322" lon="4.58028">
        <ele>762</ele>
        <time>2018-09-26T19:36:36Z</time>
      </trkpt>
      <trkpt lat="45.60356" lon="4.58132">
        <ele>765</ele>
        <time>2018-09-26T19:37:36Z</time>
      </trkpt>
      <trkpt lat="45.60356" lon="4.58133">
        <ele>765</ele>
        <time>2018-09-26T19:38:36Z</time>
      </trkpt>
      <trkpt lat="45.60361" lon="4.58153">
        <ele>765</ele>
        <time>2018-09-26T19:39:36Z</time>
      </trkpt>
      <trkpt lat="45.60364" lon="4.58176">
        <ele>765</ele>
        <time>2018-09-26T19:40:36Z</time>
      </trkpt>
      <trkpt lat="45.60371" lon="4.58199">
        <ele>765</ele>
        <time>2018-09-26T19:41:36Z</time>
      </trkpt>
      <trkpt lat="45.60374" lon="4.58212">
        <ele>765</ele>
        <time>2018-09-26T19:42:36Z</time>
      </trkpt>
      <trkpt lat="45.6039" lon="4.58286">
        <ele>764</ele>
        <time>2018-09-26T19:43:36Z</time>
      </trkpt>
      <trkpt lat="45.6041" lon="4.58323">
        <ele>766</ele>
        <time>2018-09-26T19:44:36Z</time>
      </trkpt>
      <trkpt lat="45.60419" lon="4.58343">
        <ele>767</ele>
        <time>2018-09-26T19:45:36Z</time>
      </trkpt>
      <trkpt lat="45.60423" lon="4.58367">
        <ele>766</ele>
        <time>2018-09-26T19:46:36Z</time>
      </trkpt>
      <trkpt lat="45.60433" lon="4.58389">
        <ele>767</ele>
        <time>2018-09-26T19:47:36Z</time>
      </trkpt>
      <trkpt lat="45.60463" lon="4.5845">
        <ele>770</ele>
        <time>2018-09-26T19:48:36Z</time>
      </trkpt>
      <trkpt lat="45.60476" lon="4.5848">
        <ele>771</ele>
        <time>2018-09-26T19:49:36Z</time>
      </trkpt>
      <trkpt lat="45.60485" lon="4.58519">
        <ele>771</ele>
        <time>2018-09-26T19:50:36Z</time>
      </trkpt>
      <trkpt lat="45.60498" lon="4.58559">
        <ele>772</ele>
        <time>2018-09-26T19:51:36Z</time>
      </trkpt>
      <trkpt lat="45.6051" lon="4.58595">
        <ele>772</ele>
        <time>2018-09-26T19:52:36Z</time>
      </trkpt>
      <trkpt lat="45.60518" lon="4.58624">
        <ele>773</ele>
        <time>2018-09-26T19:53:36Z</time>
      </trkpt>
      <trkpt lat="45.60527" lon="4.58648">
        <ele>773</ele>
        <time>2018-09-26T19:54:36Z</time>
      </trkpt>
      <trkpt lat="45.60539" lon="4.5867">
        <ele>774</ele>
        <time>2018-09-26T19:55:36Z</time>
      </trkpt>
      <trkpt lat="45.60549" lon="4.58685">
        <ele>775</ele>
        <time>2018-09-26T19:56:36Z</time>
      </trkpt>
      <trkpt lat="45.60572" lon="4.58705">
        <ele>777</ele>
        <time>2018-09-26T19:57:36Z</time>
      </trkpt>
      <trkpt lat="45.60598" lon="4.58729">
        <ele>778</ele>
        <time>2018-09-26T19:58:36Z</time>
      </trkpt>
      <trkpt lat="45.60616" lon="4.58746">
        <ele>779</ele>
        <time>2018-09-26T19:59:36Z</time>
      </trkpt>
      <trkpt lat="45.60636" lon="4.58765">
        <ele>779</ele>
        <time>2018-09-26T20:00:36Z</time>
      </trkpt>
      <trkpt lat="45.60648" lon="4.58774">
        <ele>780</ele>
        <time>2018-09-26T20:01:36Z</time>
      </trkpt>
      <trkpt lat="45.60658" lon="4.58802">
        <ele>778</ele>
        <time>2018-09-26T20:02:36Z</time>
      </trkpt>
      <trkpt lat="45.60691" lon="4.58886">
        <ele>772</ele>
        <time>2018-09-26T20:03:36Z</time>
      </trkpt>
      <trkpt lat="45.60701" lon="4.58902">
        <ele>771</ele>
        <time>2018-09-26T20:04:36Z</time>
      </trkpt>
      <trkpt lat="45.60713" lon="4.58919">
        <ele>770</ele>
        <time>2018-09-26T20:05:36Z</time>
      </trkpt>
      <trkpt lat="45.60769" lon="4.58975">
        <ele>766</ele>
        <time>2018-09-26T20:06:36Z</time>
      </trkpt>
      <trkpt lat="45.60787" lon="4.58991">
        <ele>765</ele>
        <time>2018-09-26T20:07:36Z</time>
      </trkpt>
      <trkpt lat="45.608" lon="4.58994">
        <ele>765</ele>
        <time>2018-09-26T20:08:36Z</time>
      </trkpt>
      <trkpt lat="45.60825" lon="4.59003">
        <ele>766</ele>
        <time>2018-09-26T20:09:36Z</time>
      </trkpt>
      <trkpt lat="45.60842" lon="4.59017">
        <ele>767</ele>
        <time>2018-09-26T20:10:36Z</time>
      </trkpt>
      <trkpt lat="45.60854" lon="4.59037">
        <ele>769</ele>
        <time>2018-09-26T20:11:36Z</time>
      </trkpt>
      <trkpt lat="45.60871" lon="4.59076">
        <ele>770</ele>
        <time>2018-09-26T20:12:36Z</time>
      </trkpt>
      <trkpt lat="45.60887" lon="4.59122">
        <ele>771</ele>
        <time>2018-09-26T20:13:36Z</time>
      </trkpt>
      <trkpt lat="45.609" lon="4.59169">
        <ele>771</ele>
        <time>2018-09-26T20:14:36Z</time>
      </trkpt>
      <trkpt lat="45.60884" lon="4.59363">
        <ele>766</ele>
        <time>2018-09-26T20:15:36Z</time>
      </trkpt>
      <trkpt lat="45.60869" lon="4.59434">
        <ele>763</ele>
        <time>2018-09-26T20:16:36Z</time>
      </trkpt>
      <trkpt lat="45.60868" lon="4.59473">
        <ele>763</ele>
        <time>2018-09-26T20:17:36Z</time>
      </trkpt>
      <trkpt lat="45.60872" lon="4.59531">
        <ele>764</ele>
        <time>2018-09-26T20:18:36Z</time>
      </trkpt>
      <trkpt lat="45.60874" lon="4.59548">
        <ele>763</ele>
        <time>2018-09-26T20:19:36Z</time>
      </trkpt>
      <trkpt lat="45.60888" lon="4.59579">
        <ele>765</ele>
        <time>2018-09-26T20:20:36Z</time>
      </trkpt>
      <trkpt lat="45.60903" lon="4.59602">
        <ele>766</ele>
        <time>2018-09-26T20:21:36Z</time>
      </trkpt>
      <trkpt lat="45.6092" lon="4.5962">
        <ele>767</ele>
        <time>2018-09-26T20:22:36Z</time>
      </trkpt>
      <trkpt lat="45.60935" lon="4.59636">
        <ele>767</ele>
        <time>2018-09-26T20:23:36Z</time>
      </trkpt>
      <trkpt lat="45.6094" lon="4.59658">
        <ele>767</ele>
        <time>2018-09-26T20:24:36Z</time>
      </trkpt>
      <trkpt lat="45.60949" lon="4.59679">
        <ele>766</ele>
        <time>2018-09-26T20:25:36Z</time>
      </trkpt>
      <trkpt lat="45.6096" lon="4.59707">
        <ele>764</ele>
        <time>2018-09-26T20:26:36Z</time>
      </trkpt>
      <trkpt lat="45.60975" lon="4.59749">
        <ele>761</ele>
        <time>2018-09-26T20:27:36Z</time>
      </trkpt>
      <trkpt lat="45.60984" lon="4.59767">
        <ele>760</ele>
        <time>2018-09-26T20:28:36Z</time>
      </trkpt>
      <trkpt lat="45.60994" lon="4.59775">
        <ele>760</ele>
        <time>2018-09-26T20:29:36Z</time>
      </trkpt>
      <trkpt lat="45.61008" lon="4.59777">
        <ele>762</ele>
        <time>2018-09-26T20:30:36Z</time>
      </trkpt>
      <trkpt lat="45.61017" lon="4.59779">
        <ele>762</ele>
        <time>2018-09-26T20:31:36Z</time>
      </trkpt>
      <trkpt lat="45.61025" lon="4.59784">
        <ele>763</ele>
        <time>2018-09-26T20:32:36Z</time>
      </trkpt>
      <trkpt lat="45.61029" lon="4.59792">
        <ele>762</ele>
        <time>2018-09-26T20:33:36Z</time>
      </trkpt>
      <trkpt lat="45.6103" lon="4.59802">
        <ele>762</ele>
        <time>2018-09-26T20:34:36Z</time>
      </trkpt>
      <trkpt lat="45.61028" lon="4.59814">
        <ele>761</ele>
        <time>2018-09-26T20:35:36Z</time>
      </trkpt>
      <trkpt lat="45.61022" lon="4.59831">
        <ele>758</ele>
        <time>2018-09-26T20:36:36Z</time>
      </trkpt>
      <trkpt lat="45.6102" lon="4.59845">
        <ele>757</ele>
        <time>2018-09-26T20:37:36Z</time>
      </trkpt>
      <trkpt lat="45.61014" lon="4.59877">
        <ele>756</ele>
        <time>2018-09-26T20:38:36Z</time>
      </trkpt>
      <trkpt lat="45.61013" lon="4.59894">
        <ele>755</ele>
        <time>2018-09-26T20:39:36Z</time>
      </trkpt>
      <trkpt lat="45.61015" lon="4.59911">
        <ele>756</ele>
        <time>2018-09-26T20:40:36Z</time>
      </trkpt>
      <trkpt lat="45.61022" lon="4.59932">
        <ele>756</ele>
        <time>2018-09-26T20:41:36Z</time>
      </trkpt>
      <trkpt lat="45.61032" lon="4.59951">
        <ele>756</ele>
        <time>2018-09-26T20:42:36Z</time>
      </trkpt>
      <trkpt lat="45.61038" lon="4.59962">
        <ele>757</ele>
        <time>2018-09-26T20:43:36Z</time>
      </trkpt>
      <trkpt lat="45.61052" lon="4.59981">
        <ele>758</ele>
        <time>2018-09-26T20:44:36Z</time>
      </trkpt>
      <trkpt lat="45.61065" lon="4.59998">
        <ele>759</ele>
        <time>2018-09-26T20:45:36Z</time>
      </trkpt>
      <trkpt lat="45.61076" lon="4.60007">
        <ele>759</ele>
        <time>2018-09-26T20:46:36Z</time>
      </trkpt>
      <trkpt lat="45.61102" lon="4.60027">
        <ele>759</ele>
        <time>2018-09-26T20:47:36Z</time>
      </trkpt>
      <trkpt lat="45.61122" lon="4.60036">
        <ele>759</ele>
        <time>2018-09-26T20:48:36Z</time>
      </trkpt>
      <trkpt lat="45.61138" lon="4.60044">
        <ele>759</ele>
        <time>2018-09-26T20:49:36Z</time>
      </trkpt>
      <trkpt lat="45.61166" lon="4.60054">
        <ele>760</ele>
        <time>2018-09-26T20:50:36Z</time>
      </trkpt>
      <trkpt lat="45.61175" lon="4.60063">
        <ele>760</ele>
        <time>2018-09-26T20:51:36Z</time>
      </trkpt>
      <trkpt lat="45.61177" lon="4.60095">
        <ele>756</ele>
        <time>2018-09-26T20:52:36Z</time>
      </trkpt>
      <trkpt lat="45.61181" lon="4.60143">
        <ele>750</ele>
        <time>2018-09-26T20:53:36Z</time>
      </trkpt>
      <trkpt lat="45.61185" lon="4.60178">
        <ele>747</ele>
        <time>2018-09-26T20:54:36Z</time>
      </trkpt>
      <trkpt lat="45.61187" lon="4.60201">
        <ele>745</ele>
        <time>2018-09-26T20:55:36Z</time>
      </trkpt>
      <trkpt lat="45.61196" lon="4.60237">
        <ele>743</ele>
        <time>2018-09-26T20:56:36Z</time>
      </trkpt>
      <trkpt lat="45.61206" lon="4.60273">
        <ele>741</ele>
        <time>2018-09-26T20:57:36Z</time>
      </trkpt>
      <trkpt lat="45.61244" lon="4.60331">
        <ele>741</ele>
        <time>2018-09-26T20:58:36Z</time>
      </trkpt>
      <trkpt lat="45.61255" lon="4.6035">
        <ele>741</ele>
        <time>2018-09-26T20:59:36Z</time>
      </trkpt>
      <trkpt lat="45.61263" lon="4.60359">
        <ele>743</ele>
        <time>2018-09-26T21:00:36Z</time>
      </trkpt>
      <trkpt lat="45.61269" lon="4.60359">
        <ele>745</ele>
        <time>2018-09-26T21:01:36Z</time>
      </trkpt>
      <trkpt lat="45.61275" lon="4.60358">
        <ele>747</ele>
        <time>2018-09-26T21:02:36Z</time>
      </trkpt>
      <trkpt lat="45.61287" lon="4.60395">
        <ele>746</ele>
        <time>2018-09-26T21:03:36Z</time>
      </trkpt>
      <trkpt lat="45.61294" lon="4.60447">
        <ele>745</ele>
        <time>2018-09-26T21:04:36Z</time>
      </trkpt>
      <trkpt lat="45.61305" lon="4.60511">
        <ele>745</ele>
        <time>2018-09-26T21:05:36Z</time>
      </trkpt>
      <trkpt lat="45.61334" lon="4.60551">
        <ele>749</ele>
        <time>2018-09-26T21:06:36Z</time>
      </trkpt>
      <trkpt lat="45.61387" lon="4.60581">
        <ele>751</ele>
        <time>2018-09-26T21:07:36Z</time>
      </trkpt>
      <trkpt lat="45.61426" lon="4.60591">
        <ele>752</ele>
        <time>2018-09-26T21:08:36Z</time>
      </trkpt>
      <trkpt lat="45.61476" lon="4.60576">
        <ele>759</ele>
        <time>2018-09-26T21:09:36Z</time>
      </trkpt>
      <trkpt lat="45.615" lon="4.606">
        <ele>754</ele>
        <time>2018-09-26T21:10:36Z</time>
      </trkpt>
      <trkpt lat="45.61545" lon="4.6064">
        <ele>752</ele>
        <time>2018-09-26T21:11:36Z</time>
      </trkpt>
      <trkpt lat="45.61588" lon="4.60684">
        <ele>751</ele>
        <time>2018-09-26T21:12:36Z</time>
      </trkpt>
      <trkpt lat="45.61642" lon="4.60756">
        <ele>744</ele>
        <time>2018-09-26T21:13:36Z</time>
      </trkpt>
      <trkpt lat="45.61679" lon="4.60756">
        <ele>749</ele>
        <time>2018-09-26T21:14:36Z</time>
      </trkpt>
      <trkpt lat="45.61712" lon="4.60759">
        <ele>751</ele>
        <time>2018-09-26T21:15:36Z</time>
      </trkpt>
      <trkpt lat="45.61728" lon="4.60761">
        <ele>752</ele>
        <time>2018-09-26T21:16:36Z</time>
      </trkpt>
      <trkpt lat="45.61751" lon="4.60776">
        <ele>750</ele>
        <time>2018-09-26T21:17:36Z</time>
      </trkpt>
      <trkpt lat="45.61765" lon="4.60782">
        <ele>749</ele>
        <time>2018-09-26T21:18:36Z</time>
      </trkpt>
      <trkpt lat="45.61777" lon="4.6078">
        <ele>751</ele>
        <time>2018-09-26T21:19:36Z</time>
      </trkpt>
      <trkpt lat="45.61794" lon="4.60778">
        <ele>752</ele>
        <time>2018-09-26T21:20:36Z</time>
      </trkpt>
      <trkpt lat="45.618" lon="4.60803">
        <ele>747</ele>
        <time>2018-09-26T21:21:36Z</time>
      </trkpt>
      <trkpt lat="45.6181" lon="4.60828">
        <ele>741</ele>
        <time>2018-09-26T21:22:36Z</time>
      </trkpt>
      <trkpt lat="45.61845" lon="4.60845">
        <ele>736</ele>
        <time>2018-09-26T21:23:36Z</time>
      </trkpt>
      <trkpt lat="45.61895" lon="4.60856">
        <ele>728</ele>
        <time>2018-09-26T21:24:36Z</time>
      </trkpt>
      <trkpt lat="45.61913" lon="4.60865">
        <ele>722</ele>
        <time>2018-09-26T21:25:36Z</time>
      </trkpt>
      <trkpt lat="45.61926" lon="4.60874">
        <ele>718</ele>
        <time>2018-09-26T21:26:36Z</time>
      </trkpt>
      <trkpt lat="45.61944" lon="4.60882">
        <ele>714</ele>
        <time>2018-09-26T21:27:36Z</time>
      </trkpt>
      <trkpt lat="45.61954" lon="4.60886">
        <ele>712</ele>
        <time>2018-09-26T21:28:36Z</time>
      </trkpt>
      <trkpt lat="45.61964" lon="4.60889">
        <ele>710</ele>
        <time>2018-09-26T21:29:36Z</time>
      </trkpt>
      <trkpt lat="45.61979" lon="4.60887">
        <ele>711</ele>
        <time>2018-09-26T21:30:36Z</time>
      </trkpt>
      <trkpt lat="45.62002" lon="4.60881">
        <ele>713</ele>
        <time>2018-09-26T21:31:36Z</time>
      </trkpt>
      <trkpt lat="45.62047" lon="4.60892">
        <ele>720</ele>
        <time>2018-09-26T21:32:36Z</time>
      </trkpt>
      <trkpt lat="45.62054" lon="4.60914">
        <ele>717</ele>
        <time>2018-09-26T21:33:36Z</time>
      </trkpt>
      <trkpt lat="45.62035" lon="4.60963">
        <ele>705</ele>
        <time>2018-09-26T21:34:36Z</time>
      </trkpt>
      <trkpt lat="45.62022" lon="4.61009">
        <ele>695</ele>
        <time>2018-09-26T21:35:36Z</time>
      </trkpt>
      <trkpt lat="45.62001" lon="4.61099">
        <ele>686</ele>
        <time>2018-09-26T21:36:36Z</time>
      </trkpt>
      <trkpt lat="45.61995" lon="4.61117">
        <ele>682</ele>
        <time>2018-09-26T21:37:36Z</time>
      </trkpt>
      <trkpt lat="45.61997" lon="4.61149">
        <ele>680</ele>
        <time>2018-09-26T21:38:36Z</time>
      </trkpt>
      <trkpt lat="45.62006" lon="4.61156">
        <ele>681</ele>
        <time>2018-09-26T21:39:36Z</time>
      </trkpt>
      <trkpt lat="45.6203" lon="4.61133">
        <ele>690</ele>
        <time>2018-09-26T21:40:36Z</time>
      </trkpt>
      <trkpt lat="45.62059" lon="4.61117">
        <ele>699</ele>
        <time>2018-09-26T21:41:36Z</time>
      </trkpt>
      <trkpt lat="45.62083" lon="4.61091">
        <ele>711</ele>
        <time>2018-09-26T21:42:36Z</time>
      </trkpt>
      <trkpt lat="45.62106" lon="4.61052">
        <ele>721</ele>
        <time>2018-09-26T21:43:36Z</time>
      </trkpt>
      <trkpt lat="45.62114" lon="4.61035">
        <ele>726</ele>
        <time>2018-09-26T21:44:36Z</time>
      </trkpt>
      <trkpt lat="45.62133" lon="4.61034">
        <ele>732</ele>
        <time>2018-09-26T21:45:36Z</time>
      </trkpt>
      <trkpt lat="45.62145" lon="4.61033">
        <ele>736</ele>
        <time>2018-09-26T21:46:36Z</time>
      </trkpt>
      <trkpt lat="45.6215" lon="4.61005">
        <ele>744</ele>
        <time>2018-09-26T21:47:36Z</time>
      </trkpt>
      <trkpt lat="45.62164" lon="4.60981">
        <ele>754</ele>
        <time>2018-09-26T21:48:36Z</time>
      </trkpt>
      <trkpt lat="45.62176" lon="4.60959">
        <ele>761</ele>
        <time>2018-09-26T21:49:36Z</time>
      </trkpt>
      <trkpt lat="45.6218" lon="4.6094">
        <ele>766</ele>
        <time>2018-09-26T21:50:36Z</time>
      </trkpt>
      <trkpt lat="45.62188" lon="4.60928">
        <ele>770</ele>
        <time>2018-09-26T21:51:36Z</time>
      </trkpt>
      <trkpt lat="45.62211" lon="4.60902">
        <ele>781</ele>
        <time>2018-09-26T21:52:36Z</time>
      </trkpt>
      <trkpt lat="45.62231" lon="4.60898">
        <ele>788</ele>
        <time>2018-09-26T21:53:36Z</time>
      </trkpt>
      <trkpt lat="45.62246" lon="4.60892">
        <ele>794</ele>
        <time>2018-09-26T21:54:36Z</time>
      </trkpt>
      <trkpt lat="45.62267" lon="4.60876">
        <ele>802</ele>
        <time>2018-09-26T21:55:36Z</time>
      </trkpt>
      <trkpt lat="45.62293" lon="4.60846">
        <ele>813</ele>
        <time>2018-09-26T21:56:36Z</time>
      </trkpt>
      <trkpt lat="45.62314" lon="4.60829">
        <ele>822</ele>
        <time>2018-09-26T21:57:36Z</time>
      </trkpt>
      <trkpt lat="45.62324" lon="4.60808">
        <ele>827</ele>
        <time>2018-09-26T21:58:36Z</time>
      </trkpt>
      <trkpt lat="45.62338" lon="4.60794">
        <ele>833</ele>
        <time>2018-09-26T21:59:36Z</time>
      </trkpt>
      <trkpt lat="45.62352" lon="4.60782">
        <ele>837</ele>
        <time>2018-09-26T22:00:36Z</time>
      </trkpt>
      <trkpt lat="45.62366" lon="4.60782">
        <ele>841</ele>
        <time>2018-09-26T22:01:36Z</time>
      </trkpt>
      <trkpt lat="45.62372" lon="4.60769">
        <ele>843</ele>
        <time>2018-09-26T22:02:36Z</time>
      </trkpt>
      <trkpt lat="45.62377" lon="4.60762">
        <ele>845</ele>
        <time>2018-09-26T22:03:36Z</time>
      </trkpt>
      <trkpt lat="45.62391" lon="4.60757">
        <ele>849</ele>
        <time>2018-09-26T22:04:36Z</time>
      </trkpt>
      <trkpt lat="45.62394" lon="4.60749">
        <ele>851</ele>
        <time>2018-09-26T22:05:36Z</time>
      </trkpt>
      <trkpt lat="45.62395" lon="4.60722">
        <ele>851</ele>
        <time>2018-09-26T22:06:36Z</time>
      </trkpt>
      <trkpt lat="45.624" lon="4.60698">
        <ele>853</ele>
        <time>2018-09-26T22:07:36Z</time>
      </trkpt>
      <trkpt lat="45.62412" lon="4.60675">
        <ele>856</ele>
        <time>2018-09-26T22:08:36Z</time>
      </trkpt>
      <trkpt lat="45.62421" lon="4.60665">
        <ele>858</ele>
        <time>2018-09-26T22:09:36Z</time>
      </trkpt>
      <trkpt lat="45.62434" lon="4.60649">
        <ele>858</ele>
        <time>2018-09-26T22:10:36Z</time>
      </trkpt>
      <trkpt lat="45.62437" lon="4.60635">
        <ele>857</ele>
        <time>2018-09-26T22:11:36Z</time>
      </trkpt>
      <trkpt lat="45.62439" lon="4.60617">
        <ele>856</ele>
        <time>2018-09-26T22:12:36Z</time>
      </trkpt>
      <trkpt lat="45.62442" lon="4.60605">
        <ele>856</ele>
        <time>2018-09-26T22:13:36Z</time>
      </trkpt>
      <trkpt lat="45.62452" lon="4.60607">
        <ele>857</ele>
        <time>2018-09-26T22:14:36Z</time>
      </trkpt>
      <trkpt lat="45.62466" lon="4.60608">
        <ele>857</ele>
        <time>2018-09-26T22:15:36Z</time>
      </trkpt>
      <trkpt lat="45.62479" lon="4.60615">
        <ele>859</ele>
        <time>2018-09-26T22:16:36Z</time>
      </trkpt>
      <trkpt lat="45.62489" lon="4.60615">
        <ele>859</ele>
        <time>2018-09-26T22:17:36Z</time>
      </trkpt>
      <trkpt lat="45.62515" lon="4.6057">
        <ele>856</ele>
        <time>2018-09-26T22:18:36Z</time>
      </trkpt>
      <trkpt lat="45.62527" lon="4.60547">
        <ele>855</ele>
        <time>2018-09-26T22:19:36Z</time>
      </trkpt>
      <trkpt lat="45.62529" lon="4.60536">
        <ele>855</ele>
        <time>2018-09-26T22:20:36Z</time>
      </trkpt>
      <trkpt lat="45.62523" lon="4.60516">
        <ele>855</ele>
        <time>2018-09-26T22:21:36Z</time>
      </trkpt>
      <trkpt lat="45.62527" lon="4.60503">
        <ele>855</ele>
        <time>2018-09-26T22:22:36Z</time>
      </trkpt>
      <trkpt lat="45.62539" lon="4.60476">
        <ele>856</ele>
        <time>2018-09-26T22:23:36Z</time>
      </trkpt>
      <trkpt lat="45.62545" lon="4.6046">
        <ele>857</ele>
        <time>2018-09-26T22:24:36Z</time>
      </trkpt>
      <trkpt lat="45.62555" lon="4.60448">
        <ele>859</ele>
        <time>2018-09-26T22:25:36Z</time>
      </trkpt>
      <trkpt lat="45.62564" lon="4.60431">
        <ele>860</ele>
        <time>2018-09-26T22:26:36Z</time>
      </trkpt>
      <trkpt lat="45.62573" lon="4.60416">
        <ele>862</ele>
        <time>2018-09-26T22:27:36Z</time>
      </trkpt>
      <trkpt lat="45.62582" lon="4.6041">
        <ele>863</ele>
        <time>2018-09-26T22:28:36Z</time>
      </trkpt>
      <trkpt lat="45.62595" lon="4.60408">
        <ele>862</ele>
        <time>2018-09-26T22:29:36Z</time>
      </trkpt>
      <trkpt lat="45.62625" lon="4.60405">
        <ele>860</ele>
        <time>2018-09-26T22:30:36Z</time>
      </trkpt>
      <trkpt lat="45.62652" lon="4.60384">
        <ele>859</ele>
        <time>2018-09-26T22:31:36Z</time>
      </trkpt>
      <trkpt lat="45.62684" lon="4.60353">
        <ele>859</ele>
        <time>2018-09-26T22:32:36Z</time>
      </trkpt>
      <trkpt lat="45.62707" lon="4.60325">
        <ele>858</ele>
        <time>2018-09-26T22:33:36Z</time>
      </trkpt>
      <trkpt lat="45.62745" lon="4.60286">
        <ele>853</ele>
        <time>2018-09-26T22:34:36Z</time>
      </trkpt>
      <trkpt lat="45.62793" lon="4.60265">
        <ele>847</ele>
        <time>2018-09-26T22:35:36Z</time>
      </trkpt>
      <trkpt lat="45.6284" lon="4.60248">
        <ele>842</ele>
        <time>2018-09-26T22:36:36Z</time>
      </trkpt>
      <trkpt lat="45.62876" lon="4.60224">
        <ele>838</ele>
        <time>2018-09-26T22:37:36Z</time>
      </trkpt>
      <trkpt lat="45.62892" lon="4.60199">
        <ele>838</ele>
        <time>2018-09-26T22:38:36Z</time>
      </trkpt>
      <trkpt lat="45.62893" lon="4.60218">
        <ele>837</ele>
        <time>2018-09-26T22:39:36Z</time>
      </trkpt>
      <trkpt lat="45.62893" lon="4.60254">
        <ele>834</ele>
        <time>2018-09-26T22:40:36Z</time>
      </trkpt>
      <trkpt lat="45.62886" lon="4.60309">
        <ele>828</ele>
        <time>2018-09-26T22:41:36Z</time>
      </trkpt>
      <trkpt lat="45.62886" lon="4.60348">
        <ele>822</ele>
        <time>2018-09-26T22:42:36Z</time>
      </trkpt>
      <trkpt lat="45.62878" lon="4.60389">
        <ele>819</ele>
        <time>2018-09-26T22:43:36Z</time>
      </trkpt>
      <trkpt lat="45.62888" lon="4.60383">
        <ele>817</ele>
        <time>2018-09-26T22:44:36Z</time>
      </trkpt>
      <trkpt lat="45.62896" lon="4.60363">
        <ele>817</ele>
        <time>2018-09-26T22:45:36Z</time>
      </trkpt>
      <trkpt lat="45.62914" lon="4.60308">
        <ele>821</ele>
        <time>2018-09-26T22:46:36Z</time>
      </trkpt>
      <trkpt lat="45.62933" lon="4.60262">
        <ele>826</ele>
        <time>2018-09-26T22:47:36Z</time>
      </trkpt>
      <trkpt lat="45.62971" lon="4.60191">
        <ele>833</ele>
        <time>2018-09-26T22:48:36Z</time>
      </trkpt>
      <trkpt lat="45.62989" lon="4.60168">
        <ele>837</ele>
        <time>2018-09-26T22:49:36Z</time>
      </trkpt>
      <trkpt lat="45.63016" lon="4.60152">
        <ele>841</ele>
        <time>2018-09-26T22:50:36Z</time>
      </trkpt>
      <trkpt lat="45.63051" lon="4.60135">
        <ele>848</ele>
        <time>2018-09-26T22:51:36Z</time>
      </trkpt>
      <trkpt lat="45.63073" lon="4.60159">
        <ele>848</ele>
        <time>2018-09-26T22:52:36Z</time>
      </trkpt>
      <trkpt lat="45.63106" lon="4.6023">
        <ele>845</ele>
        <time>2018-09-26T22:53:36Z</time>
      </trkpt>
      <trkpt lat="45.63153" lon="4.60329">
        <ele>845</ele>
        <time>2018-09-26T22:54:36Z</time>
      </trkpt>
      <trkpt lat="45.63185" lon="4.6037">
        <ele>845</ele>
        <time>2018-09-26T22:55:36Z</time>
      </trkpt>
      <trkpt lat="45.63222" lon="4.60418">
        <ele>841</ele>
        <time>2018-09-26T22:56:36Z</time>
      </trkpt>
      <trkpt lat="45.63248" lon="4.60427">
        <ele>845</ele>
        <time>2018-09-26T22:57:36Z</time>
      </trkpt>
      <trkpt lat="45.63275" lon="4.6045">
        <ele>843</ele>
        <time>2018-09-26T22:58:36Z</time>
      </trkpt>
      <trkpt lat="45.63308" lon="4.60467">
        <ele>844</ele>
        <time>2018-09-26T22:59:36Z</time>
      </trkpt>
      <trkpt lat="45.63329" lon="4.60499">
        <ele>838</ele>
        <time>2018-09-26T23:00:36Z</time>
      </trkpt>
      <trkpt lat="45.63344" lon="4.60509">
        <ele>836</ele>
        <time>2018-09-26T23:01:36Z</time>
      </trkpt>
      <trkpt lat="45.63356" lon="4.60512">
        <ele>835</ele>
        <time>2018-09-26T23:02:36Z</time>
      </trkpt>
      <trkpt lat="45.63381" lon="4.60503">
        <ele>836</ele>
        <time>2018-09-26T23:03:36Z</time>
      </trkpt>
      <trkpt lat="45.63398" lon="4.60491">
        <ele>837</ele>
        <time>2018-09-26T23:04:36Z</time>
      </trkpt>
      <trkpt lat="45.63402" lon="4.6048">
        <ele>839</ele>
        <time>2018-09-26T23:05:36Z</time>
      </trkpt>
      <trkpt lat="45.63406" lon="4.60468">
        <ele>841</ele>
        <time>2018-09-26T23:06:36Z</time>
      </trkpt>
      <trkpt lat="45.63409" lon="4.6045">
        <ele>845</ele>
        <time>2018-09-26T23:07:36Z</time>
      </trkpt>
      <trkpt lat="45.63459" lon="4.60409">
        <ele>843</ele>
        <time>2018-09-26T23:08:36Z</time>
      </trkpt>
      <trkpt lat="45.63485" lon="4.60403">
        <ele>839</ele>
        <time>2018-09-26T23:09:36Z</time>
      </trkpt>
      <trkpt lat="45.63519" lon="4.60398">
        <ele>833</ele>
        <time>2018-09-26T23:10:36Z</time>
      </trkpt>
      <trkpt lat="45.63548" lon="4.60374">
        <ele>831</ele>
        <time>2018-09-26T23:11:36Z</time>
      </trkpt>
      <trkpt lat="45.63586" lon="4.60347">
        <ele>827</ele>
        <time>2018-09-26T23:12:36Z</time>
      </trkpt>
      <trkpt lat="45.6364" lon="4.60313">
        <ele>824</ele>
        <time>2018-09-26T23:13:36Z</time>
      </trkpt>
      <trkpt lat="45.63677" lon="4.60275">
        <ele>824</ele>
        <time>2018-09-26T23:14:36Z</time>
      </trkpt>
      <trkpt lat="45.63703" lon="4.6025">
        <ele>826</ele>
        <time>2018-09-26T23:15:36Z</time>
      </trkpt>
      <trkpt lat="45.63732" lon="4.60223">
        <ele>826</ele>
        <time>2018-09-26T23:16:36Z</time>
      </trkpt>
      <trkpt lat="45.63761" lon="4.60195">
        <ele>825</ele>
        <time>2018-09-26T23:17:36Z</time>
      </trkpt>
      <trkpt lat="45.63838" lon="4.60218">
        <ele>810</ele>
        <time>2018-09-26T23:18:36Z</time>
      </trkpt>
      <trkpt lat="45.6386" lon="4.60256">
        <ele>804</ele>
        <time>2018-09-26T23:19:36Z</time>
      </trkpt>
      <trkpt lat="45.63887" lon="4.60293">
        <ele>798</ele>
        <time>2018-09-26T23:20:36Z</time>
      </trkpt>
      <trkpt lat="45.63916" lon="4.60328">
        <ele>796</ele>
        <time>2018-09-26T23:21:36Z</time>
      </trkpt>
      <trkpt lat="45.63927" lon="4.60338">
        <ele>795</ele>
        <time>2018-09-26T23:22:36Z</time>
      </trkpt>
      <trkpt lat="45.6396" lon="4.60374">
        <ele>792</ele>
        <time>2018-09-26T23:23:36Z</time>
      </trkpt>
      <trkpt lat="45.63997" lon="4.60398">
        <ele>791</ele>
        <time>2018-09-26T23:24:36Z</time>
      </trkpt>
      <trkpt lat="45.64028" lon="4.60416">
        <ele>788</ele>
        <time>2018-09-26T23:25:36Z</time>
      </trkpt>
      <trkpt lat="45.6406" lon="4.60439">
        <ele>783</ele>
        <time>2018-09-26T23:26:36Z</time>
      </trkpt>
      <trkpt lat="45.64073" lon="4.60449">
        <ele>782</ele>
        <time>2018-09-26T23:27:36Z</time>
      </trkpt>
      <trkpt lat="45.6408" lon="4.6046">
        <ele>781</ele>
        <time>2018-09-26T23:28:36Z</time>
      </trkpt>
      <trkpt lat="45.64082" lon="4.6047">
        <ele>780</ele>
        <time>2018-09-26T23:29:36Z</time>
      </trkpt>
      <trkpt lat="45.6408" lon="4.60475">
        <ele>780</ele>
        <time>2018-09-26T23:30:36Z</time>
      </trkpt>
      <trkpt lat="45.64044" lon="4.60512">
        <ele>773</ele>
        <time>2018-09-26T23:31:36Z</time>
      </trkpt>
      <trkpt lat="45.6401" lon="4.60522">
        <ele>768</ele>
        <time>2018-09-26T23:32:36Z</time>
      </trkpt>
      <trkpt lat="45.63964" lon="4.60542">
        <ele>759</ele>
        <time>2018-09-26T23:33:36Z</time>
      </trkpt>
      <trkpt lat="45.63934" lon="4.60549">
        <ele>754</ele>
        <time>2018-09-26T23:34:36Z</time>
      </trkpt>
      <trkpt lat="45.63918" lon="4.60559">
        <ele>750</ele>
        <time>2018-09-26T23:35:36Z</time>
      </trkpt>
      <trkpt lat="45.63875" lon="4.60565">
        <ele>747</ele>
        <time>2018-09-26T23:36:36Z</time>
      </trkpt>
      <trkpt lat="45.63842" lon="4.60579">
        <ele>742</ele>
        <time>2018-09-26T23:37:36Z</time>
      </trkpt>
      <trkpt lat="45.63823" lon="4.60581">
        <ele>741</ele>
        <time>2018-09-26T23:38:36Z</time>
      </trkpt>
      <trkpt lat="45.63807" lon="4.60595">
        <ele>738</ele>
        <time>2018-09-26T23:39:36Z</time>
      </trkpt>
      <trkpt lat="45.63794" lon="4.60615">
        <ele>735</ele>
        <time>2018-09-26T23:40:36Z</time>
      </trkpt>
      <trkpt lat="45.63775" lon="4.60656">
        <ele>732</ele>
        <time>2018-09-26T23:41:36Z</time>
      </trkpt>
      <trkpt lat="45.63772" lon="4.60698">
        <ele>727</ele>
        <time>2018-09-26T23:42:36Z</time>
      </trkpt>
      <trkpt lat="45.6377" lon="4.60739">
        <ele>723</ele>
        <time>2018-09-26T23:43:36Z</time>
      </trkpt>
      <trkpt lat="45.63773" lon="4.60763">
        <ele>719</ele>
        <time>2018-09-26T23:44:36Z</time>
      </trkpt>
      <trkpt lat="45.6377" lon="4.60785">
        <ele>715</ele>
        <time>2018-09-26T23:45:36Z</time>
      </trkpt>
      <trkpt lat="45.63791" lon="4.60869">
        <ele>698</ele>
        <time>2018-09-26T23:46:36Z</time>
      </trkpt>
      <trkpt lat="45.63813" lon="4.60947">
        <ele>684</ele>
        <time>2018-09-26T23:47:36Z</time>
      </trkpt>
      <trkpt lat="45.63817" lon="4.60994">
        <ele>678</ele>
        <time>2018-09-26T23:48:36Z</time>
      </trkpt>
      <trkpt lat="45.63826" lon="4.61042">
        <ele>672</ele>
        <time>2018-09-26T23:49:36Z</time>
      </trkpt>
      <trkpt lat="45.63838" lon="4.6108">
        <ele>667</ele>
        <time>2018-09-26T23:50:36Z</time>
      </trkpt>
      <trkpt lat="45.6386" lon="4.61113">
        <ele>660</ele>
        <time>2018-09-26T23:51:36Z</time>
      </trkpt>
      <trkpt lat="45.63878" lon="4.61139">
        <ele>655</ele>
        <time>2018-09-26T23:52:36Z</time>
      </trkpt>
      <trkpt lat="45.63879" lon="4.61116">
        <ele>654</ele>
        <time>2018-09-26T23:53:36Z</time>
      </trkpt>
      <trkpt lat="45.63878" lon="4.61095">
        <ele>653</ele>
        <time>2018-09-26T23:54:36Z</time>
      </trkpt>
      <trkpt lat="45.63883" lon="4.61088">
        <ele>651</ele>
        <time>2018-09-26T23:55:36Z</time>
      </trkpt>
      <trkpt lat="45.63889" lon="4.61095">
        <ele>650</ele>
        <time>2018-09-26T23:56:36Z</time>
      </trkpt>
      <trkpt lat="45.63897" lon="4.61126">
        <ele>648</ele>
        <time>2018-09-26T23:57:36Z</time>
      </trkpt>
      <trkpt lat="45.63913" lon="4.61162">
        <ele>645</ele>
        <time>2018-09-26T23:58:36Z</time>
      </trkpt>
      <trkpt lat="45.63921" lon="4.61193">
        <ele>641</ele>
        <time>2018-09-26T23:59:36Z</time>
      </trkpt>
      <trkpt lat="45.63919" lon="4.61235">
        <ele>639</ele>
        <time>2018-09-27T00:00:36Z</time>
      </trkpt>
      <trkpt lat="45.63909" lon="4.61268">
        <ele>638</ele>
        <time>2018-09-27T00:01:36Z</time>
      </trkpt>
      <trkpt lat="45.63897" lon="4.61316">
        <ele>634</ele>
        <time>2018-09-27T00:02:36Z</time>
      </trkpt>
      <trkpt lat="45.63883" lon="4.61365">
        <ele>630</ele>
        <time>2018-09-27T00:03:36Z</time>
      </trkpt>
      <trkpt lat="45.63879" lon="4.61409">
        <ele>626</ele>
        <time>2018-09-27T00:04:36Z</time>
      </trkpt>
      <trkpt lat="45.6388" lon="4.61452">
        <ele>625</ele>
        <time>2018-09-27T00:05:36Z</time>
      </trkpt>
      <trkpt lat="45.63883" lon="4.61496">
        <ele>625</ele>
        <time>2018-09-27T00:06:36Z</time>
      </trkpt>
      <trkpt lat="45.63916" lon="4.61628">
        <ele>635</ele>
        <time>2018-09-27T00:07:36Z</time>
      </trkpt>
      <trkpt lat="45.639" lon="4.61672">
        <ele>634</ele>
        <time>2018-09-27T00:08:36Z</time>
      </trkpt>
      <trkpt lat="45.63893" lon="4.61721">
        <ele>635</ele>
        <time>2018-09-27T00:09:36Z</time>
      </trkpt>
      <trkpt lat="45.63885" lon="4.61769">
        <ele>635</ele>
        <time>2018-09-27T00:10:36Z</time>
      </trkpt>
      <trkpt lat="45.63874" lon="4.61815">
        <ele>636</ele>
        <time>2018-09-27T00:11:36Z</time>
      </trkpt>
      <trkpt lat="45.63865" lon="4.6186">
        <ele>635</ele>
        <time>2018-09-27T00:12:36Z</time>
      </trkpt>
      <trkpt lat="45.63867" lon="4.61887">
        <ele>635</ele>
        <time>2018-09-27T00:13:36Z</time>
      </trkpt>
      <trkpt lat="45.63878" lon="4.61921">
        <ele>635</ele>
        <time>2018-09-27T00:14:36Z</time>
      </trkpt>
      <trkpt lat="45.63889" lon="4.61949">
        <ele>634</ele>
        <time>2018-09-27T00:15:36Z</time>
      </trkpt>
      <trkpt lat="45.63897" lon="4.61977">
        <ele>633</ele>
        <time>2018-09-27T00:16:36Z</time>
      </trkpt>
      <trkpt lat="45.63897" lon="4.61998">
        <ele>631</ele>
        <time>2018-09-27T00:17:36Z</time>
      </trkpt>
      <trkpt lat="45.6389" lon="4.62017">
        <ele>631</ele>
        <time>2018-09-27T00:18:36Z</time>
      </trkpt>
      <trkpt lat="45.63878" lon="4.62041">
        <ele>631</ele>
        <time>2018-09-27T00:19:36Z</time>
      </trkpt>
      <trkpt lat="45.63863" lon="4.62071">
        <ele>631</ele>
        <time>2018-09-27T00:20:36Z</time>
      </trkpt>
      <trkpt lat="45.6383" lon="4.6211">
        <ele>627</ele>
        <time>2018-09-27T00:21:36Z</time>
      </trkpt>
      <trkpt lat="45.63783" lon="4.62209">
        <ele>626</ele>
        <time>2018-09-27T00:22:36Z</time>
      </trkpt>
      <trkpt lat="45.63757" lon="4.62255">
        <ele>625</ele>
        <time>2018-09-27T00:23:36Z</time>
      </trkpt>
      <trkpt lat="45.63742" lon="4.62284">
        <ele>623</ele>
        <time>2018-09-27T00:24:36Z</time>
      </trkpt>
      <trkpt lat="45.63729" lon="4.62306">
        <ele>621</ele>
        <time>2018-09-27T00:25:36Z</time>
      </trkpt>
      <trkpt lat="45.6372" lon="4.6233">
        <ele>620</ele>
        <time>2018-09-27T00:26:36Z</time>
      </trkpt>
      <trkpt lat="45.63717" lon="4.62355">
        <ele>618</ele>
        <time>2018-09-27T00:27:36Z</time>
      </trkpt>
      <trkpt lat="45.63721" lon="4.62371">
        <ele>618</ele>
        <time>2018-09-27T00:28:36Z</time>
      </trkpt>
      <trkpt lat="45.6373" lon="4.62394">
        <ele>619</ele>
        <time>2018-09-27T00:29:36Z</time>
      </trkpt>
      <trkpt lat="45.63739" lon="4.62417">
        <ele>620</ele>
        <time>2018-09-27T00:30:36Z</time>
      </trkpt>
      <trkpt lat="45.63736" lon="4.62441">
        <ele>619</ele>
        <time>2018-09-27T00:31:36Z</time>
      </trkpt>
      <trkpt lat="45.63731" lon="4.62461">
        <ele>618</ele>
        <time>2018-09-27T00:32:36Z</time>
      </trkpt>
      <trkpt lat="45.63723" lon="4.62484">
        <ele>617</ele>
        <time>2018-09-27T00:33:36Z</time>
      </trkpt>
      <trkpt lat="45.63704" lon="4.62502">
        <ele>613</ele>
        <time>2018-09-27T00:34:36Z</time>
      </trkpt>
      <trkpt lat="45.63695" lon="4.62512">
        <ele>612</ele>
        <time>2018-09-27T00:35:36Z</time>
      </trkpt>
      <trkpt lat="45.63687" lon="4.62543">
        <ele>613</ele>
        <time>2018-09-27T00:36:36Z</time>
      </trkpt>
      <trkpt lat="45.63668" lon="4.62581">
        <ele>612</ele>
        <time>2018-09-27T00:37:36Z</time>
      </trkpt>
      <trkpt lat="45.63645" lon="4.62649">
        <ele>608</ele>
        <time>2018-09-27T00:38:36Z</time>
      </trkpt>
      <trkpt lat="45.63628" lon="4.627">
        <ele>604</ele>
        <time>2018-09-27T00:39:36Z</time>
      </trkpt>
      <trkpt lat="45.63626" lon="4.62701">
        <ele>603</ele>
        <time>2018-09-27T00:40:36Z</time>
      </trkpt>
      <trkpt lat="45.63602" lon="4.62742">
        <ele>596</ele>
        <time>2018-09-27T00:41:36Z</time>
      </trkpt>
      <trkpt lat="45.636" lon="4.62741">
        <ele>596</ele>
        <time>2018-09-27T00:42:36Z</time>
      </trkpt>
      <trkpt lat="45.6359" lon="4.62757">
        <ele>593</ele>
        <time>2018-09-27T00:43:36Z</time>
      </trkpt>
      <trkpt lat="45.6358" lon="4.62778">
        <ele>589</ele>
        <time>2018-09-27T00:44:36Z</time>
      </trkpt>
      <trkpt lat="45.63577" lon="4.62794">
        <ele>588</ele>
        <time>2018-09-27T00:45:36Z</time>
      </trkpt>
      <trkpt lat="45.63576" lon="4.62808">
        <ele>587</ele>
        <time>2018-09-27T00:46:36Z</time>
      </trkpt>
      <trkpt lat="45.63576" lon="4.62848">
        <ele>585</ele>
        <time>2018-09-27T00:47:36Z</time>
      </trkpt>
      <trkpt lat="45.63573" lon="4.62859">
        <ele>584</ele>
        <time>2018-09-27T00:48:36Z</time>
      </trkpt>
      <trkpt lat="45.63567" lon="4.62876">
        <ele>582</ele>
        <time>2018-09-27T00:49:36Z</time>
      </trkpt>
      <trkpt lat="45.63565" lon="4.62877">
        <ele>581</ele>
        <time>2018-09-27T00:50:36Z</time>
      </trkpt>
      <trkpt lat="45.63559" lon="4.62894">
        <ele>579</ele>
        <time>2018-09-27T00:51:36Z</time>
      </trkpt>
      <trkpt lat="45.6355" lon="4.62916">
        <ele>576</ele>
        <time>2018-09-27T00:52:36Z</time>
      </trkpt>
      <trkpt lat="45.6354" lon="4.62936">
        <ele>572</ele>
        <time>2018-09-27T00:53:36Z</time>
      </trkpt>
      <trkpt lat="45.63539" lon="4.62943">
        <ele>571</ele>
        <time>2018-09-27T00:54:36Z</time>
      </trkpt>
      <trkpt lat="45.63583" lon="4.62955">
        <ele>575</ele>
        <time>2018-09-27T00:55:36Z</time>
      </trkpt>
      <trkpt lat="45.63596" lon="4.6296">
        <ele>576</ele>
        <time>2018-09-27T00:56:36Z</time>
      </trkpt>
      <trkpt lat="45.63619" lon="4.62961">
        <ele>578</ele>
        <time>2018-09-27T00:57:36Z</time>
      </trkpt>
      <trkpt lat="45.63629" lon="4.6296">
        <ele>580</ele>
        <time>2018-09-27T00:58:36Z</time>
      </trkpt>
      <trkpt lat="45.63645" lon="4.6296">
        <ele>582</ele>
        <time>2018-09-27T00:59:36Z</time>
      </trkpt>
      <trkpt lat="45.63663" lon="4.62958">
        <ele>585</ele>
        <time>2018-09-27T01:00:36Z</time>
      </trkpt>
      <trkpt lat="45.63685" lon="4.62959">
        <ele>588</ele>
        <time>2018-09-27T01:01:36Z</time>
      </trkpt>
      <trkpt lat="45.63694" lon="4.62962">
        <ele>589</ele>
        <time>2018-09-27T01:02:36Z</time>
      </trkpt>
      <trkpt lat="45.6371" lon="4.6297">
        <ele>590</ele>
        <time>2018-09-27T01:03:36Z</time>
      </trkpt>
      <trkpt lat="45.63731" lon="4.62981">
        <ele>592</ele>
        <time>2018-09-27T01:04:36Z</time>
      </trkpt>
      <trkpt lat="45.63749" lon="4.62994">
        <ele>593</ele>
        <time>2018-09-27T01:05:36Z</time>
      </trkpt>
      <trkpt lat="45.6376" lon="4.63">
        <ele>595</ele>
        <time>2018-09-27T01:06:36Z</time>
      </trkpt>
      <trkpt lat="45.63761" lon="4.63056">
        <ele>594</ele>
        <time>2018-09-27T01:07:36Z</time>
      </trkpt>
      <trkpt lat="45.6378" lon="4.63092">
        <ele>598</ele>
        <time>2018-09-27T01:08:36Z</time>
      </trkpt>
      <trkpt lat="45.63807" lon="4.63109">
        <ele>604</ele>
        <time>2018-09-27T01:09:36Z</time>
      </trkpt>
      <trkpt lat="45.63831" lon="4.63103">
        <ele>611</ele>
        <time>2018-09-27T01:10:36Z</time>
      </trkpt>
      <trkpt lat="45.6387" lon="4.63077">
        <ele>620</ele>
        <time>2018-09-27T01:11:36Z</time>
      </trkpt>
      <trkpt lat="45.63924" lon="4.63062">
        <ele>630</ele>
        <time>2018-09-27T01:12:36Z</time>
      </trkpt>
      <trkpt lat="45.64024" lon="4.63012">
        <ele>639</ele>
        <time>2018-09-27T01:13:36Z</time>
      </trkpt>
      <trkpt lat="45.64178" lon="4.62923">
        <ele>631</ele>
        <time>2018-09-27T01:14:36Z</time>
      </trkpt>
      <trkpt lat="45.64281" lon="4.62867">
        <ele>618</ele>
        <time>2018-09-27T01:15:36Z</time>
      </trkpt>
      <trkpt lat="45.64302" lon="4.62934">
        <ele>613</ele>
        <time>2018-09-27T01:16:36Z</time>
      </trkpt>
      <trkpt lat="45.64315" lon="4.62972">
        <ele>612</ele>
        <time>2018-09-27T01:17:36Z</time>
      </trkpt>
      <trkpt lat="45.64323" lon="4.63005">
        <ele>611</ele>
        <time>2018-09-27T01:18:36Z</time>
      </trkpt>
      <trkpt lat="45.64326" lon="4.6304">
        <ele>610</ele>
        <time>2018-09-27T01:19:36Z</time>
      </trkpt>
      <trkpt lat="45.64334" lon="4.63071">
        <ele>610</ele>
        <time>2018-09-27T01:20:36Z</time>
      </trkpt>
      <trkpt lat="45.64339" lon="4.63088">
        <ele>610</ele>
        <time>2018-09-27T01:21:36Z</time>
      </trkpt>
      <trkpt lat="45.64334" lon="4.63113">
        <ele>607</ele>
        <time>2018-09-27T01:22:36Z</time>
      </trkpt>
      <trkpt lat="45.64329" lon="4.63139">
        <ele>604</ele>
        <time>2018-09-27T01:23:36Z</time>
      </trkpt>
      <trkpt lat="45.64327" lon="4.63164">
        <ele>601</ele>
        <time>2018-09-27T01:24:36Z</time>
      </trkpt>
      <trkpt lat="45.64327" lon="4.63193">
        <ele>599</ele>
        <time>2018-09-27T01:25:36Z</time>
      </trkpt>
      <trkpt lat="45.6433" lon="4.63214">
        <ele>598</ele>
        <time>2018-09-27T01:26:36Z</time>
      </trkpt>
      <trkpt lat="45.64335" lon="4.63233">
        <ele>598</ele>
        <time>2018-09-27T01:27:36Z</time>
      </trkpt>
      <trkpt lat="45.64331" lon="4.63255">
        <ele>596</ele>
        <time>2018-09-27T01:28:36Z</time>
      </trkpt>
      <trkpt lat="45.64323" lon="4.63289">
        <ele>591</ele>
        <time>2018-09-27T01:29:36Z</time>
      </trkpt>
      <trkpt lat="45.64323" lon="4.63313">
        <ele>589</ele>
        <time>2018-09-27T01:30:36Z</time>
      </trkpt>
      <trkpt lat="45.64329" lon="4.63332">
        <ele>589</ele>
        <time>2018-09-27T01:31:36Z</time>
      </trkpt>
      <trkpt lat="45.6433" lon="4.63343">
        <ele>588</ele>
        <time>2018-09-27T01:32:36Z</time>
      </trkpt>
      <trkpt lat="45.64329" lon="4.63356">
        <ele>586</ele>
        <time>2018-09-27T01:33:36Z</time>
      </trkpt>
      <trkpt lat="45.64321" lon="4.63362">
        <ele>584</ele>
        <time>2018-09-27T01:34:36Z</time>
      </trkpt>
      <trkpt lat="45.64299" lon="4.63379">
        <ele>578</ele>
        <time>2018-09-27T01:35:36Z</time>
      </trkpt>
      <trkpt lat="45.64288" lon="4.63385">
        <ele>575</ele>
        <time>2018-09-27T01:36:36Z</time>
      </trkpt>
      <trkpt lat="45.64214" lon="4.63537">
        <ele>544</ele>
        <time>2018-09-27T01:37:36Z</time>
      </trkpt>
      <trkpt lat="45.64158" lon="4.63655">
        <ele>524</ele>
        <time>2018-09-27T01:38:36Z</time>
      </trkpt>
      <trkpt lat="45.64152" lon="4.63661">
        <ele>523</ele>
        <time>2018-09-27T01:39:36Z</time>
      </trkpt>
      <trkpt lat="45.64144" lon="4.63666">
        <ele>521</ele>
        <time>2018-09-27T01:40:36Z</time>
      </trkpt>
      <trkpt lat="45.64113" lon="4.63673">
        <ele>515</ele>
        <time>2018-09-27T01:41:36Z</time>
      </trkpt>
      <trkpt lat="45.64121" lon="4.63685">
        <ele>516</ele>
        <time>2018-09-27T01:42:36Z</time>
      </trkpt>
      <trkpt lat="45.64134" lon="4.63704">
        <ele>517</ele>
        <time>2018-09-27T01:43:36Z</time>
      </trkpt>
      <trkpt lat="45.64151" lon="4.6371">
        <ele>520</ele>
        <time>2018-09-27T01:44:36Z</time>
      </trkpt>
      <trkpt lat="45.64152" lon="4.6372">
        <ele>520</ele>
        <time>2018-09-27T01:45:36Z</time>
      </trkpt>
      <trkpt lat="45.64146" lon="4.6373">
        <ele>518</ele>
        <time>2018-09-27T01:46:36Z</time>
      </trkpt>
      <trkpt lat="45.6413" lon="4.63745">
        <ele>514</ele>
        <time>2018-09-27T01:47:36Z</time>
      </trkpt>
      <trkpt lat="45.64114" lon="4.63789">
        <ele>512</ele>
        <time>2018-09-27T01:48:36Z</time>
      </trkpt>
      <trkpt lat="45.64116" lon="4.6385">
        <ele>515</ele>
        <time>2018-09-27T01:49:36Z</time>
      </trkpt>
      <trkpt lat="45.64119" lon="4.63858">
        <ele>516</ele>
        <time>2018-09-27T01:50:36Z</time>
      </trkpt>
      <trkpt lat="45.64123" lon="4.63888">
        <ele>519</ele>
        <time>2018-09-27T01:51:36Z</time>
      </trkpt>
      <trkpt lat="45.64128" lon="4.63923">
        <ele>522</ele>
        <time>2018-09-27T01:52:36Z</time>
      </trkpt>
      <trkpt lat="45.64132" lon="4.63926">
        <ele>523</ele>
        <time>2018-09-27T01:53:36Z</time>
      </trkpt>
      <trkpt lat="45.64141" lon="4.63896">
        <ele>525</ele>
        <time>2018-09-27T01:54:36Z</time>
      </trkpt>
      <trkpt lat="45.64152" lon="4.63865">
        <ele>526</ele>
        <time>2018-09-27T01:55:36Z</time>
      </trkpt>
      <trkpt lat="45.64164" lon="4.63843">
        <ele>529</ele>
        <time>2018-09-27T01:56:36Z</time>
      </trkpt>
      <trkpt lat="45.64177" lon="4.63826">
        <ele>531</ele>
        <time>2018-09-27T01:57:36Z</time>
      </trkpt>
      <trkpt lat="45.64182" lon="4.63821">
        <ele>531</ele>
        <time>2018-09-27T01:58:36Z</time>
      </trkpt>
      <trkpt lat="45.64182" lon="4.63848">
        <ele>533</ele>
        <time>2018-09-27T01:59:36Z</time>
      </trkpt>
      <trkpt lat="45.64183" lon="4.63886">
        <ele>535</ele>
        <time>2018-09-27T02:00:36Z</time>
      </trkpt>
      <trkpt lat="45.64186" lon="4.63907">
        <ele>537</ele>
        <time>2018-09-27T02:01:36Z</time>
      </trkpt>
      <trkpt lat="45.64194" lon="4.63926">
        <ele>539</ele>
        <time>2018-09-27T02:02:36Z</time>
      </trkpt>
      <trkpt lat="45.64214" lon="4.63949">
        <ele>542</ele>
        <time>2018-09-27T02:03:36Z</time>
      </trkpt>
      <trkpt lat="45.6423" lon="4.63961">
        <ele>544</ele>
        <time>2018-09-27T02:04:36Z</time>
      </trkpt>
      <trkpt lat="45.64281" lon="4.6398">
        <ele>549</ele>
        <time>2018-09-27T02:05:36Z</time>
      </trkpt>
      <trkpt lat="45.64354" lon="4.63991">
        <ele>551</ele>
        <time>2018-09-27T02:06:36Z</time>
      </trkpt>
      <trkpt lat="45.644" lon="4.63995">
        <ele>551</ele>
        <time>2018-09-27T02:07:36Z</time>
      </trkpt>
      <trkpt lat="45.64425" lon="4.63996">
        <ele>551</ele>
        <time>2018-09-27T02:08:36Z</time>
      </trkpt>
      <trkpt lat="45.64448" lon="4.64004">
        <ele>550</ele>
        <time>2018-09-27T02:09:36Z</time>
      </trkpt>
      <trkpt lat="45.64479" lon="4.64017">
        <ele>550</ele>
        <time>2018-09-27T02:10:36Z</time>
      </trkpt>
      <trkpt lat="45.64487" lon="4.64027">
        <ele>549</ele>
        <time>2018-09-27T02:11:36Z</time>
      </trkpt>
      <trkpt lat="45.64495" lon="4.64055">
        <ele>547</ele>
        <time>2018-09-27T02:12:36Z</time>
      </trkpt>
      <trkpt lat="45.64497" lon="4.64078">
        <ele>545</ele>
        <time>2018-09-27T02:13:36Z</time>
      </trkpt>
      <trkpt lat="45.64496" lon="4.64101">
        <ele>544</ele>
        <time>2018-09-27T02:14:36Z</time>
      </trkpt>
      <trkpt lat="45.64493" lon="4.64142">
        <ele>541</ele>
        <time>2018-09-27T02:15:36Z</time>
      </trkpt>
      <trkpt lat="45.6449" lon="4.64174">
        <ele>539</ele>
        <time>2018-09-27T02:16:36Z</time>
      </trkpt>
      <trkpt lat="45.64486" lon="4.64218">
        <ele>539</ele>
        <time>2018-09-27T02:17:36Z</time>
      </trkpt>
      <trkpt lat="45.64485" lon="4.6425">
        <ele>540</ele>
        <time>2018-09-27T02:18:36Z</time>
      </trkpt>
      <trkpt lat="45.64529" lon="4.64242">
        <ele>541</ele>
        <time>2018-09-27T02:19:36Z</time>
      </trkpt>
      <trkpt lat="45.64554" lon="4.64229">
        <ele>539</ele>
        <time>2018-09-27T02:20:36Z</time>
      </trkpt>
      <trkpt lat="45.64581" lon="4.64185">
        <ele>539</ele>
        <time>2018-09-27T02:21:36Z</time>
      </trkpt>
      <trkpt lat="45.64612" lon="4.64123">
        <ele>541</ele>
        <time>2018-09-27T02:22:36Z</time>
      </trkpt>
      <trkpt lat="45.64666" lon="4.64155">
        <ele>539</ele>
        <time>2018-09-27T02:23:36Z</time>
      </trkpt>
      <trkpt lat="45.64702" lon="4.64144">
        <ele>542</ele>
        <time>2018-09-27T02:24:36Z</time>
      </trkpt>
      <trkpt lat="45.64755" lon="4.64123">
        <ele>546</ele>
        <time>2018-09-27T02:25:36Z</time>
      </trkpt>
      <trkpt lat="45.64808" lon="4.64126">
        <ele>549</ele>
        <time>2018-09-27T02:26:36Z</time>
      </trkpt>
      <trkpt lat="45.64834" lon="4.64137">
        <ele>550</ele>
        <time>2018-09-27T02:27:36Z</time>
      </trkpt>
      <trkpt lat="45.64845" lon="4.64162">
        <ele>549</ele>
        <time>2018-09-27T02:28:36Z</time>
      </trkpt>
      <trkpt lat="45.64882" lon="4.64222">
        <ele>551</ele>
        <time>2018-09-27T02:29:36Z</time>
      </trkpt>
      <trkpt lat="45.64895" lon="4.64251">
        <ele>551</ele>
        <time>2018-09-27T02:30:36Z</time>
      </trkpt>
      <trkpt lat="45.64924" lon="4.64254">
        <ele>554</ele>
        <time>2018-09-27T02:31:36Z</time>
      </trkpt>
      <trkpt lat="45.64954" lon="4.6425">
        <ele>554</ele>
        <time>2018-09-27T02:32:36Z</time>
      </trkpt>
      <trkpt lat="45.64969" lon="4.64298">
        <ele>550</ele>
        <time>2018-09-27T02:33:36Z</time>
      </trkpt>
      <trkpt lat="45.64993" lon="4.6433">
        <ele>549</ele>
        <time>2018-09-27T02:34:36Z</time>
      </trkpt>
      <trkpt lat="45.65015" lon="4.64376">
        <ele>546</ele>
        <time>2018-09-27T02:35:36Z</time>
      </trkpt>
      <trkpt lat="45.65027" lon="4.64411">
        <ele>543</ele>
        <time>2018-09-27T02:36:36Z</time>
      </trkpt>
      <trkpt lat="45.65055" lon="4.64439">
        <ele>543</ele>
        <time>2018-09-27T02:37:36Z</time>
      </trkpt>
      <trkpt lat="45.65077" lon="4.64462">
        <ele>543</ele>
        <time>2018-09-27T02:38:36Z</time>
      </trkpt>
      <trkpt lat="45.65114" lon="4.64453">
        <ele>542</ele>
        <time>2018-09-27T02:39:36Z</time>
      </trkpt>
      <trkpt lat="45.65148" lon="4.64436">
        <ele>541</ele>
        <time>2018-09-27T02:40:36Z</time>
      </trkpt>
      <trkpt lat="45.65194" lon="4.64392">
        <ele>538</ele>
        <time>2018-09-27T02:41:36Z</time>
      </trkpt>
      <trkpt lat="45.65226" lon="4.64356">
        <ele>535</ele>
        <time>2018-09-27T02:42:36Z</time>
      </trkpt>
      <trkpt lat="45.65268" lon="4.64325">
        <ele>531</ele>
        <time>2018-09-27T02:43:36Z</time>
      </trkpt>
      <trkpt lat="45.65318" lon="4.64289">
        <ele>523</ele>
        <time>2018-09-27T02:44:36Z</time>
      </trkpt>
      <trkpt lat="45.65343" lon="4.64281">
        <ele>518</ele>
        <time>2018-09-27T02:45:36Z</time>
      </trkpt>
      <trkpt lat="45.6539" lon="4.64283">
        <ele>508</ele>
        <time>2018-09-27T02:46:36Z</time>
      </trkpt>
      <trkpt lat="45.65426" lon="4.64284">
        <ele>502</ele>
        <time>2018-09-27T02:47:36Z</time>
      </trkpt>
      <trkpt lat="45.65454" lon="4.6428">
        <ele>499</ele>
        <time>2018-09-27T02:48:36Z</time>
      </trkpt>
      <trkpt lat="45.65486" lon="4.64255">
        <ele>495</ele>
        <time>2018-09-27T02:49:36Z</time>
      </trkpt>
      <trkpt lat="45.65508" lon="4.64214">
        <ele>489</ele>
        <time>2018-09-27T02:50:36Z</time>
      </trkpt>
      <trkpt lat="45.65555" lon="4.64152">
        <ele>485</ele>
        <time>2018-09-27T02:51:36Z</time>
      </trkpt>
      <trkpt lat="45.65587" lon="4.64111">
        <ele>482</ele>
        <time>2018-09-27T02:52:36Z</time>
      </trkpt>
      <trkpt lat="45.65631" lon="4.64078">
        <ele>475</ele>
        <time>2018-09-27T02:53:36Z</time>
      </trkpt>
      <trkpt lat="45.65679" lon="4.64042">
        <ele>463</ele>
        <time>2018-09-27T02:54:36Z</time>
      </trkpt>
      <trkpt lat="45.65713" lon="4.64012">
        <ele>453</ele>
        <time>2018-09-27T02:55:36Z</time>
      </trkpt>
      <trkpt lat="45.65733" lon="4.64006">
        <ele>450</ele>
        <time>2018-09-27T02:56:36Z</time>
      </trkpt>
      <trkpt lat="45.65749" lon="4.63961">
        <ele>441</ele>
        <time>2018-09-27T02:57:36Z</time>
      </trkpt>
      <trkpt lat="45.6578" lon="4.63941">
        <ele>434</ele>
        <time>2018-09-27T02:58:36Z</time>
      </trkpt>
      <trkpt lat="45.65837" lon="4.63944">
        <ele>427</ele>
        <time>2018-09-27T02:59:36Z</time>
      </trkpt>
      <trkpt lat="45.65882" lon="4.63969">
        <ele>421</ele>
        <time>2018-09-27T03:00:36Z</time>
      </trkpt>
      <trkpt lat="45.65913" lon="4.63957">
        <ele>414</ele>
        <time>2018-09-27T03:01:36Z</time>
      </trkpt>
      <trkpt lat="45.6597" lon="4.63916">
        <ele>410</ele>
        <time>2018-09-27T03:02:36Z</time>
      </trkpt>
      <trkpt lat="45.65987" lon="4.64006">
        <ele>410</ele>
        <time>2018-09-27T03:03:36Z</time>
      </trkpt>
      <trkpt lat="45.66015" lon="4.64118">
        <ele>424</ele>
        <time>2018-09-27T03:04:36Z</time>
      </trkpt>
      <trkpt lat="45.65924" lon="4.64162">
        <ele>434</ele>
        <time>2018-09-27T03:05:36Z</time>
      </trkpt>
      <trkpt lat="45.65915" lon="4.64198">
        <ele>441</ele>
        <time>2018-09-27T03:06:36Z</time>
      </trkpt>
      <trkpt lat="45.65932" lon="4.64237">
        <ele>448</ele>
        <time>2018-09-27T03:07:36Z</time>
      </trkpt>
      <trkpt lat="45.6598" lon="4.64305">
        <ele>455</ele>
        <time>2018-09-27T03:08:36Z</time>
      </trkpt>
      <trkpt lat="45.65983" lon="4.6433">
        <ele>457</ele>
        <time>2018-09-27T03:09:36Z</time>
      </trkpt>
      <trkpt lat="45.6597" lon="4.64391">
        <ele>462</ele>
        <time>2018-09-27T03:10:36Z</time>
      </trkpt>
      <trkpt lat="45.65963" lon="4.6443">
        <ele>466</ele>
        <time>2018-09-27T03:11:36Z</time>
      </trkpt>
      <trkpt lat="45.65927" lon="4.6447">
        <ele>474</ele>
        <time>2018-09-27T03:12:36Z</time>
      </trkpt>
      <trkpt lat="45.6591" lon="4.64503">
        <ele>479</ele>
        <time>2018-09-27T03:13:36Z</time>
      </trkpt>
      <trkpt lat="45.6592" lon="4.64585">
        <ele>489</ele>
        <time>2018-09-27T03:14:36Z</time>
      </trkpt>
      <trkpt lat="45.65929" lon="4.64617">
        <ele>490</ele>
        <time>2018-09-27T03:15:36Z</time>
      </trkpt>
      <trkpt lat="45.65911" lon="4.64726">
        <ele>497</ele>
        <time>2018-09-27T03:16:36Z</time>
      </trkpt>
      <trkpt lat="45.65909" lon="4.64788">
        <ele>501</ele>
        <time>2018-09-27T03:17:36Z</time>
      </trkpt>
      <trkpt lat="45.65876" lon="4.64849">
        <ele>507</ele>
        <time>2018-09-27T03:18:36Z</time>
      </trkpt>
      <trkpt lat="45.65806" lon="4.64926">
        <ele>515</ele>
        <time>2018-09-27T03:19:36Z</time>
      </trkpt>
      <trkpt lat="45.65754" lon="4.64974">
        <ele>517</ele>
        <time>2018-09-27T03:20:36Z</time>
      </trkpt>
      <trkpt lat="45.65708" lon="4.65014">
        <ele>520</ele>
        <time>2018-09-27T03:21:36Z</time>
      </trkpt>
      <trkpt lat="45.65677" lon="4.65041">
        <ele>522</ele>
        <time>2018-09-27T03:22:36Z</time>
      </trkpt>
      <trkpt lat="45.6562" lon="4.65125">
        <ele>528</ele>
        <time>2018-09-27T03:23:36Z</time>
      </trkpt>
      <trkpt lat="45.65563" lon="4.65222">
        <ele>534</ele>
        <time>2018-09-27T03:24:36Z</time>
      </trkpt>
      <trkpt lat="45.65514" lon="4.6529">
        <ele>538</ele>
        <time>2018-09-27T03:25:36Z</time>
      </trkpt>
      <trkpt lat="45.65483" lon="4.65319">
        <ele>537</ele>
        <time>2018-09-27T03:26:36Z</time>
      </trkpt>
      <trkpt lat="45.65466" lon="4.65349">
        <ele>534</ele>
        <time>2018-09-27T03:27:36Z</time>
      </trkpt>
      <trkpt lat="45.65451" lon="4.65388">
        <ele>529</ele>
        <time>2018-09-27T03:28:36Z</time>
      </trkpt>
      <trkpt lat="45.65443" lon="4.65395">
        <ele>528</ele>
        <time>2018-09-27T03:29:36Z</time>
      </trkpt>
      <trkpt lat="45.65387" lon="4.65371">
        <ele>534</ele>
        <time>2018-09-27T03:30:36Z</time>
      </trkpt>
      <trkpt lat="45.65365" lon="4.6537">
        <ele>537</ele>
        <time>2018-09-27T03:31:36Z</time>
      </trkpt>
      <trkpt lat="45.65354" lon="4.65398">
        <ele>535</ele>
        <time>2018-09-27T03:32:36Z</time>
      </trkpt>
      <trkpt lat="45.65319" lon="4.65447">
        <ele>534</ele>
        <time>2018-09-27T03:33:36Z</time>
      </trkpt>
      <trkpt lat="45.65303" lon="4.65472">
        <ele>532</ele>
        <time>2018-09-27T03:34:36Z</time>
      </trkpt>
      <trkpt lat="45.65299" lon="4.65499">
        <ele>529</ele>
        <time>2018-09-27T03:35:36Z</time>
      </trkpt>
      <trkpt lat="45.65299" lon="4.65529">
        <ele>524</ele>
        <time>2018-09-27T03:36:36Z</time>
      </trkpt>
      <trkpt lat="45.65292" lon="4.6554">
        <ele>523</ele>
        <time>2018-09-27T03:37:36Z</time>
      </trkpt>
      <trkpt lat="45.65275" lon="4.65548">
        <ele>523</ele>
        <time>2018-09-27T03:38:36Z</time>
      </trkpt>
      <trkpt lat="45.65251" lon="4.65549">
        <ele>525</ele>
        <time>2018-09-27T03:39:36Z</time>
      </trkpt>
      <trkpt lat="45.65208" lon="4.6554">
        <ele>529</ele>
        <time>2018-09-27T03:40:36Z</time>
      </trkpt>
      <trkpt lat="45.65182" lon="4.65529">
        <ele>532</ele>
        <time>2018-09-27T03:41:36Z</time>
      </trkpt>
      <trkpt lat="45.65161" lon="4.65563">
        <ele>529</ele>
        <time>2018-09-27T03:42:36Z</time>
      </trkpt>
      <trkpt lat="45.65172" lon="4.65635">
        <ele>524</ele>
        <time>2018-09-27T03:43:36Z</time>
      </trkpt>
      <trkpt lat="45.65154" lon="4.65689">
        <ele>526</ele>
        <time>2018-09-27T03:44:36Z</time>
      </trkpt>
      <trkpt lat="45.65142" lon="4.65729">
        <ele>529</ele>
        <time>2018-09-27T03:45:36Z</time>
      </trkpt>
      <trkpt lat="45.65154" lon="4.6579">
        <ele>528</ele>
        <time>2018-09-27T03:46:36Z</time>
      </trkpt>
      <trkpt lat="45.65147" lon="4.65815">
        <ele>528</ele>
        <time>2018-09-27T03:47:36Z</time>
      </trkpt>
      <trkpt lat="45.65132" lon="4.65848">
        <ele>529</ele>
        <time>2018-09-27T03:48:36Z</time>
      </trkpt>
      <trkpt lat="45.65102" lon="4.65882">
        <ele>531</ele>
        <time>2018-09-27T03:49:36Z</time>
      </trkpt>
      <trkpt lat="45.65066" lon="4.65933">
        <ele>531</ele>
        <time>2018-09-27T03:50:36Z</time>
      </trkpt>
      <trkpt lat="45.65023" lon="4.6598">
        <ele>533</ele>
        <time>2018-09-27T03:51:36Z</time>
      </trkpt>
      <trkpt lat="45.65016" lon="4.65988">
        <ele>534</ele>
        <time>2018-09-27T03:52:36Z</time>
      </trkpt>
      <trkpt lat="45.65009" lon="4.65999">
        <ele>534</ele>
        <time>2018-09-27T03:53:36Z</time>
      </trkpt>
      <trkpt lat="45.65004" lon="4.66016">
        <ele>535</ele>
        <time>2018-09-27T03:54:36Z</time>
      </trkpt>
      <trkpt lat="45.6499" lon="4.66042">
        <ele>534</ele>
        <time>2018-09-27T03:55:36Z</time>
      </trkpt>
      <trkpt lat="45.64979" lon="4.66063">
        <ele>534</ele>
        <time>2018-09-27T03:56:36Z</time>
      </trkpt>
      <trkpt lat="45.64956" lon="4.66092">
        <ele>534</ele>
        <time>2018-09-27T03:57:36Z</time>
      </trkpt>
      <trkpt lat="45.64932" lon="4.66128">
        <ele>534</ele>
        <time>2018-09-27T03:58:36Z</time>
      </trkpt>
      <trkpt lat="45.64909" lon="4.6616">
        <ele>535</ele>
        <time>2018-09-27T03:59:36Z</time>
      </trkpt>
      <trkpt lat="45.64899" lon="4.66189">
        <ele>533</ele>
        <time>2018-09-27T04:00:36Z</time>
      </trkpt>
      <trkpt lat="45.6492" lon="4.66211">
        <ele>533</ele>
        <time>2018-09-27T04:01:36Z</time>
      </trkpt>
      <trkpt lat="45.64934" lon="4.66227">
        <ele>532</ele>
        <time>2018-09-27T04:02:36Z</time>
      </trkpt>
      <trkpt lat="45.64956" lon="4.66242">
        <ele>531</ele>
        <time>2018-09-27T04:03:36Z</time>
      </trkpt>
      <trkpt lat="45.64984" lon="4.66259">
        <ele>530</ele>
        <time>2018-09-27T04:04:36Z</time>
      </trkpt>
      <trkpt lat="45.65011" lon="4.66271">
        <ele>528</ele>
        <time>2018-09-27T04:05:36Z</time>
      </trkpt>
      <trkpt lat="45.65028" lon="4.66281">
        <ele>526</ele>
        <time>2018-09-27T04:06:36Z</time>
      </trkpt>
      <trkpt lat="45.65029" lon="4.66267">
        <ele>527</ele>
        <time>2018-09-27T04:07:36Z</time>
      </trkpt>
      <trkpt lat="45.65042" lon="4.66254">
        <ele>527</ele>
        <time>2018-09-27T04:08:36Z</time>
      </trkpt>
      <trkpt lat="45.65057" lon="4.6623">
        <ele>527</ele>
        <time>2018-09-27T04:09:36Z</time>
      </trkpt>
      <trkpt lat="45.6511" lon="4.66189">
        <ele>524</ele>
        <time>2018-09-27T04:10:36Z</time>
      </trkpt>
      <trkpt lat="45.65136" lon="4.66181">
        <ele>522</ele>
        <time>2018-09-27T04:11:36Z</time>
      </trkpt>
      <trkpt lat="45.65158" lon="4.66172">
        <ele>521</ele>
        <time>2018-09-27T04:12:36Z</time>
      </trkpt>
      <trkpt lat="45.65182" lon="4.66177">
        <ele>519</ele>
        <time>2018-09-27T04:13:36Z</time>
      </trkpt>
      <trkpt lat="45.65203" lon="4.66177">
        <ele>517</ele>
        <time>2018-09-27T04:14:36Z</time>
      </trkpt>
      <trkpt lat="45.65218" lon="4.66184">
        <ele>514</ele>
        <time>2018-09-27T04:15:36Z</time>
      </trkpt>
      <trkpt lat="45.6524" lon="4.66183">
        <ele>512</ele>
        <time>2018-09-27T04:16:36Z</time>
      </trkpt>
      <trkpt lat="45.65314" lon="4.66154">
        <ele>500</ele>
        <time>2018-09-27T04:17:36Z</time>
      </trkpt>
      <trkpt lat="45.65356" lon="4.66165">
        <ele>494</ele>
        <time>2018-09-27T04:18:36Z</time>
      </trkpt>
      <trkpt lat="45.65382" lon="4.66195">
        <ele>489</ele>
        <time>2018-09-27T04:19:36Z</time>
      </trkpt>
      <trkpt lat="45.65399" lon="4.66215">
        <ele>486</ele>
        <time>2018-09-27T04:20:36Z</time>
      </trkpt>
      <trkpt lat="45.65413" lon="4.66249">
        <ele>484</ele>
        <time>2018-09-27T04:21:36Z</time>
      </trkpt>
      <trkpt lat="45.65413" lon="4.66273">
        <ele>483</ele>
        <time>2018-09-27T04:22:36Z</time>
      </trkpt>
      <trkpt lat="45.65426" lon="4.66309">
        <ele>480</ele>
        <time>2018-09-27T04:23:36Z</time>
      </trkpt>
      <trkpt lat="45.65435" lon="4.6632">
        <ele>478</ele>
        <time>2018-09-27T04:24:36Z</time>
      </trkpt>
      <trkpt lat="45.65446" lon="4.66347">
        <ele>475</ele>
        <time>2018-09-27T04:25:36Z</time>
      </trkpt>
      <trkpt lat="45.65463" lon="4.66359">
        <ele>473</ele>
        <time>2018-09-27T04:26:36Z</time>
      </trkpt>
      <trkpt lat="45.65474" lon="4.66381">
        <ele>470</ele>
        <time>2018-09-27T04:27:36Z</time>
      </trkpt>
      <trkpt lat="45.65496" lon="4.66404">
        <ele>468</ele>
        <time>2018-09-27T04:28:36Z</time>
      </trkpt>
      <trkpt lat="45.65494" lon="4.66422">
        <ele>467</ele>
        <time>2018-09-27T04:29:36Z</time>
      </trkpt>
      <trkpt lat="45.65464" lon="4.66416">
        <ele>468</ele>
        <time>2018-09-27T04:30:36Z</time>
      </trkpt>
      <trkpt lat="45.65432" lon="4.66432">
        <ele>468</ele>
        <time>2018-09-27T04:31:36Z</time>
      </trkpt>
      <trkpt lat="45.65397" lon="4.66487">
        <ele>462</ele>
        <time>2018-09-27T04:32:36Z</time>
      </trkpt>
      <trkpt lat="45.65375" lon="4.66531">
        <ele>461</ele>
        <time>2018-09-27T04:33:36Z</time>
      </trkpt>
      <trkpt lat="45.65347" lon="4.66568">
        <ele>461</ele>
        <time>2018-09-27T04:34:36Z</time>
      </trkpt>
      <trkpt lat="45.65309" lon="4.66605">
        <ele>463</ele>
        <time>2018-09-27T04:35:36Z</time>
      </trkpt>
      <trkpt lat="45.65288" lon="4.66652">
        <ele>462</ele>
        <time>2018-09-27T04:36:36Z</time>
      </trkpt>
      <trkpt lat="45.65251" lon="4.66686">
        <ele>464</ele>
        <time>2018-09-27T04:37:36Z</time>
      </trkpt>
      <trkpt lat="45.65214" lon="4.66703">
        <ele>464</ele>
        <time>2018-09-27T04:38:36Z</time>
      </trkpt>
      <trkpt lat="45.65179" lon="4.66704">
        <ele>466</ele>
        <time>2018-09-27T04:39:36Z</time>
      </trkpt>
      <trkpt lat="45.65167" lon="4.66748">
        <ele>466</ele>
        <time>2018-09-27T04:40:36Z</time>
      </trkpt>
      <trkpt lat="45.65187" lon="4.66819">
        <ele>467</ele>
        <time>2018-09-27T04:41:36Z</time>
      </trkpt>
      <trkpt lat="45.652" lon="4.6689">
        <ele>467</ele>
        <time>2018-09-27T04:42:36Z</time>
      </trkpt>
      <trkpt lat="45.65172" lon="4.66924">
        <ele>469</ele>
        <time>2018-09-27T04:43:36Z</time>
      </trkpt>
      <trkpt lat="45.65135" lon="4.66985">
        <ele>471</ele>
        <time>2018-09-27T04:44:36Z</time>
      </trkpt>
      <trkpt lat="45.65056" lon="4.67038">
        <ele>476</ele>
        <time>2018-09-27T04:45:36Z</time>
      </trkpt>
      <trkpt lat="45.64982" lon="4.67109">
        <ele>472</ele>
        <time>2018-09-27T04:46:36Z</time>
      </trkpt>
      <trkpt lat="45.64925" lon="4.67141">
        <ele>472</ele>
        <time>2018-09-27T04:47:36Z</time>
      </trkpt>
      <trkpt lat="45.64887" lon="4.67173">
        <ele>473</ele>
        <time>2018-09-27T04:48:36Z</time>
      </trkpt>
      <trkpt lat="45.64858" lon="4.67249">
        <ele>473</ele>
        <time>2018-09-27T04:49:36Z</time>
      </trkpt>
      <trkpt lat="45.6483" lon="4.6731">
        <ele>474</ele>
        <time>2018-09-27T04:50:36Z</time>
      </trkpt>
      <trkpt lat="45.6482" lon="4.6734">
        <ele>474</ele>
        <time>2018-09-27T04:51:36Z</time>
      </trkpt>
      <trkpt lat="45.64852" lon="4.6742">
        <ele>470</ele>
        <time>2018-09-27T04:52:36Z</time>
      </trkpt>
      <trkpt lat="45.64934" lon="4.67448">
        <ele>464</ele>
        <time>2018-09-27T04:53:36Z</time>
      </trkpt>
      <trkpt lat="45.65025" lon="4.67549">
        <ele>457</ele>
        <time>2018-09-27T04:54:36Z</time>
      </trkpt>
      <trkpt lat="45.65075" lon="4.67604">
        <ele>448</ele>
        <time>2018-09-27T04:55:36Z</time>
      </trkpt>
      <trkpt lat="45.65139" lon="4.67648">
        <ele>438</ele>
        <time>2018-09-27T04:56:36Z</time>
      </trkpt>
      <trkpt lat="45.65204" lon="4.67684">
        <ele>432</ele>
        <time>2018-09-27T04:57:36Z</time>
      </trkpt>
      <trkpt lat="45.6525" lon="4.67723">
        <ele>428</ele>
        <time>2018-09-27T04:58:36Z</time>
      </trkpt>
      <trkpt lat="45.65294" lon="4.67736">
        <ele>426</ele>
        <time>2018-09-27T04:59:36Z</time>
      </trkpt>
      <trkpt lat="45.65319" lon="4.67769">
        <ele>424</ele>
        <time>2018-09-27T05:00:36Z</time>
      </trkpt>
      <trkpt lat="45.65343" lon="4.67798">
        <ele>423</ele>
        <time>2018-09-27T05:01:36Z</time>
      </trkpt>
      <trkpt lat="45.65371" lon="4.6776">
        <ele>423</ele>
        <time>2018-09-27T05:02:36Z</time>
      </trkpt>
      <trkpt lat="45.65404" lon="4.67728">
        <ele>422</ele>
        <time>2018-09-27T05:03:36Z</time>
      </trkpt>
      <trkpt lat="45.65451" lon="4.67689">
        <ele>417</ele>
        <time>2018-09-27T05:04:36Z</time>
      </trkpt>
      <trkpt lat="45.65521" lon="4.6768">
        <ele>413</ele>
        <time>2018-09-27T05:05:36Z</time>
      </trkpt>
      <trkpt lat="45.65605" lon="4.67649">
        <ele>412</ele>
        <time>2018-09-27T05:06:36Z</time>
      </trkpt>
      <trkpt lat="45.65671" lon="4.67615">
        <ele>406</ele>
        <time>2018-09-27T05:07:36Z</time>
      </trkpt>
      <trkpt lat="45.65733" lon="4.67617">
        <ele>402</ele>
        <time>2018-09-27T05:08:36Z</time>
      </trkpt>
      <trkpt lat="45.65775" lon="4.67608">
        <ele>404</ele>
        <time>2018-09-27T05:09:36Z</time>
      </trkpt>
      <trkpt lat="45.65795" lon="4.67586">
        <ele>407</ele>
        <time>2018-09-27T05:10:36Z</time>
      </trkpt>
      <trkpt lat="45.65805" lon="4.67553">
        <ele>411</ele>
        <time>2018-09-27T05:11:36Z</time>
      </trkpt>
      <trkpt lat="45.65817" lon="4.67534">
        <ele>414</ele>
        <time>2018-09-27T05:12:36Z</time>
      </trkpt>
      <trkpt lat="45.6583" lon="4.67522">
        <ele>415</ele>
        <time>2018-09-27T05:13:36Z</time>
      </trkpt>
      <trkpt lat="45.6586" lon="4.67567">
        <ele>416</ele>
        <time>2018-09-27T05:14:36Z</time>
      </trkpt>
      <trkpt lat="45.65885" lon="4.67588">
        <ele>418</ele>
        <time>2018-09-27T05:15:36Z</time>
      </trkpt>
      <trkpt lat="45.65921" lon="4.67558">
        <ele>424</ele>
        <time>2018-09-27T05:16:36Z</time>
      </trkpt>
      <trkpt lat="45.65956" lon="4.67512">
        <ele>428</ele>
        <time>2018-09-27T05:17:36Z</time>
      </trkpt>
      <trkpt lat="45.65976" lon="4.67483">
        <ele>431</ele>
        <time>2018-09-27T05:18:36Z</time>
      </trkpt>
      <trkpt lat="45.66003" lon="4.67467">
        <ele>432</ele>
        <time>2018-09-27T05:19:36Z</time>
      </trkpt>
      <trkpt lat="45.66035" lon="4.67448">
        <ele>436</ele>
        <time>2018-09-27T05:20:36Z</time>
      </trkpt>
      <trkpt lat="45.66075" lon="4.67488">
        <ele>438</ele>
        <time>2018-09-27T05:21:36Z</time>
      </trkpt>
      <trkpt lat="45.66138" lon="4.67609">
        <ele>438</ele>
        <time>2018-09-27T05:22:36Z</time>
      </trkpt>
      <trkpt lat="45.66189" lon="4.67698">
        <ele>436</ele>
        <time>2018-09-27T05:23:36Z</time>
      </trkpt>
      <trkpt lat="45.66247" lon="4.67773">
        <ele>431</ele>
        <time>2018-09-27T05:24:36Z</time>
      </trkpt>
      <trkpt lat="45.66307" lon="4.67838">
        <ele>425</ele>
        <time>2018-09-27T05:25:36Z</time>
      </trkpt>
      <trkpt lat="45.66356" lon="4.67897">
        <ele>422</ele>
        <time>2018-09-27T05:26:36Z</time>
      </trkpt>
      <trkpt lat="45.66406" lon="4.67965">
        <ele>417</ele>
        <time>2018-09-27T05:27:36Z</time>
      </trkpt>
      <trkpt lat="45.6639" lon="4.67991">
        <ele>416</ele>
        <time>2018-09-27T05:28:36Z</time>
      </trkpt>
      <trkpt lat="45.66359" lon="4.68021">
        <ele>415</ele>
        <time>2018-09-27T05:29:36Z</time>
      </trkpt>
      <trkpt lat="45.66351" lon="4.68032">
        <ele>414</ele>
        <time>2018-09-27T05:30:36Z</time>
      </trkpt>
      <trkpt lat="45.66372" lon="4.68043">
        <ele>413</ele>
        <time>2018-09-27T05:31:36Z</time>
      </trkpt>
      <trkpt lat="45.664" lon="4.68074">
        <ele>411</ele>
        <time>2018-09-27T05:32:36Z</time>
      </trkpt>
      <trkpt lat="45.66427" lon="4.68103">
        <ele>409</ele>
        <time>2018-09-27T05:33:36Z</time>
      </trkpt>
      <trkpt lat="45.66444" lon="4.68131">
        <ele>408</ele>
        <time>2018-09-27T05:34:36Z</time>
      </trkpt>
      <trkpt lat="45.66458" lon="4.68162">
        <ele>407</ele>
        <time>2018-09-27T05:35:36Z</time>
      </trkpt>
      <trkpt lat="45.66479" lon="4.68192">
        <ele>406</ele>
        <time>2018-09-27T05:36:36Z</time>
      </trkpt>
      <trkpt lat="45.66506" lon="4.68216">
        <ele>405</ele>
        <time>2018-09-27T05:37:36Z</time>
      </trkpt>
      <trkpt lat="45.66526" lon="4.68232">
        <ele>403</ele>
        <time>2018-09-27T05:38:36Z</time>
      </trkpt>
      <trkpt lat="45.66574" lon="4.68261">
        <ele>401</ele>
        <time>2018-09-27T05:39:36Z</time>
      </trkpt>
      <trkpt lat="45.6661" lon="4.68288">
        <ele>400</ele>
        <time>2018-09-27T05:40:36Z</time>
      </trkpt>
      <trkpt lat="45.66633" lon="4.68302">
        <ele>399</ele>
        <time>2018-09-27T05:41:36Z</time>
      </trkpt>
      <trkpt lat="45.6667" lon="4.6832">
        <ele>397</ele>
        <time>2018-09-27T05:42:36Z</time>
      </trkpt>
      <trkpt lat="45.66736" lon="4.68349">
        <ele>392</ele>
        <time>2018-09-27T05:43:36Z</time>
      </trkpt>
      <trkpt lat="45.66764" lon="4.68362">
        <ele>390</ele>
        <time>2018-09-27T05:44:36Z</time>
      </trkpt>
      <trkpt lat="45.66783" lon="4.68376">
        <ele>389</ele>
        <time>2018-09-27T05:45:36Z</time>
      </trkpt>
      <trkpt lat="45.66803" lon="4.68388">
        <ele>388</ele>
        <time>2018-09-27T05:46:36Z</time>
      </trkpt>
      <trkpt lat="45.66826" lon="4.68395">
        <ele>387</ele>
        <time>2018-09-27T05:47:36Z</time>
      </trkpt>
      <trkpt lat="45.66909" lon="4.68413">
        <ele>381</ele>
        <time>2018-09-27T05:48:36Z</time>
      </trkpt>
      <trkpt lat="45.66941" lon="4.68428">
        <ele>379</ele>
        <time>2018-09-27T05:49:36Z</time>
      </trkpt>
      <trkpt lat="45.66964" lon="4.68405">
        <ele>380</ele>
        <time>2018-09-27T05:50:36Z</time>
      </trkpt>
      <trkpt lat="45.66976" lon="4.68401">
        <ele>380</ele>
        <time>2018-09-27T05:51:36Z</time>
      </trkpt>
      <trkpt lat="45.67015" lon="4.68398">
        <ele>379</ele>
        <time>2018-09-27T05:52:36Z</time>
      </trkpt>
      <trkpt lat="45.67028" lon="4.68392">
        <ele>380</ele>
        <time>2018-09-27T05:53:36Z</time>
      </trkpt>
      <trkpt lat="45.67048" lon="4.68379">
        <ele>380</ele>
        <time>2018-09-27T05:54:36Z</time>
      </trkpt>
      <trkpt lat="45.67065" lon="4.6836">
        <ele>381</ele>
        <time>2018-09-27T05:55:36Z</time>
      </trkpt>
      <trkpt lat="45.67077" lon="4.6835">
        <ele>381</ele>
        <time>2018-09-27T05:56:36Z</time>
      </trkpt>
      <trkpt lat="45.67093" lon="4.68372">
        <ele>381</ele>
        <time>2018-09-27T05:57:36Z</time>
      </trkpt>
      <trkpt lat="45.67114" lon="4.68399">
        <ele>380</ele>
        <time>2018-09-27T05:58:36Z</time>
      </trkpt>
      <trkpt lat="45.67189" lon="4.68452">
        <ele>379</ele>
        <time>2018-09-27T05:59:36Z</time>
      </trkpt>
      <trkpt lat="45.67215" lon="4.6847">
        <ele>378</ele>
        <time>2018-09-27T06:00:36Z</time>
      </trkpt>
      <trkpt lat="45.67234" lon="4.68493">
        <ele>377</ele>
        <time>2018-09-27T06:01:36Z</time>
      </trkpt>
      <trkpt lat="45.67247" lon="4.68511">
        <ele>376</ele>
        <time>2018-09-27T06:02:36Z</time>
      </trkpt>
      <trkpt lat="45.67261" lon="4.68521">
        <ele>375</ele>
        <time>2018-09-27T06:03:36Z</time>
      </trkpt>
      <trkpt lat="45.67301" lon="4.68539">
        <ele>375</ele>
        <time>2018-09-27T06:04:36Z</time>
      </trkpt>
      <trkpt lat="45.67314" lon="4.68554">
        <ele>375</ele>
        <time>2018-09-27T06:05:36Z</time>
      </trkpt>
      <trkpt lat="45.67414" lon="4.68796">
        <ele>377</ele>
        <time>2018-09-27T06:06:36Z</time>
      </trkpt>
      <trkpt lat="45.67425" lon="4.68826">
        <ele>377</ele>
        <time>2018-09-27T06:07:36Z</time>
      </trkpt>
      <trkpt lat="45.67427" lon="4.68852">
        <ele>378</ele>
        <time>2018-09-27T06:08:36Z</time>
      </trkpt>
      <trkpt lat="45.67428" lon="4.68883">
        <ele>379</ele>
        <time>2018-09-27T06:09:36Z</time>
      </trkpt>
      <trkpt lat="45.67435" lon="4.68918">
        <ele>379</ele>
        <time>2018-09-27T06:10:36Z</time>
      </trkpt>
      <trkpt lat="45.67436" lon="4.68919">
        <ele>379</ele>
        <time>2018-09-27T06:11:36Z</time>
      </trkpt>
      <trkpt lat="45.67446" lon="4.68958">
        <ele>378</ele>
        <time>2018-09-27T06:12:36Z</time>
      </trkpt>
      <trkpt lat="45.67456" lon="4.68995">
        <ele>378</ele>
        <time>2018-09-27T06:13:36Z</time>
      </trkpt>
      <trkpt lat="45.67465" lon="4.69017">
        <ele>378</ele>
        <time>2018-09-27T06:14:36Z</time>
      </trkpt>
      <trkpt lat="45.67478" lon="4.6904">
        <ele>378</ele>
        <time>2018-09-27T06:15:36Z</time>
      </trkpt>
      <trkpt lat="45.67499" lon="4.69062">
        <ele>378</ele>
        <time>2018-09-27T06:16:36Z</time>
      </trkpt>
      <trkpt lat="45.6752" lon="4.69081">
        <ele>378</ele>
        <time>2018-09-27T06:17:36Z</time>
      </trkpt>
      <trkpt lat="45.67542" lon="4.69103">
        <ele>377</ele>
        <time>2018-09-27T06:18:36Z</time>
      </trkpt>
      <trkpt lat="45.67594" lon="4.69149">
        <ele>375</ele>
        <time>2018-09-27T06:19:36Z</time>
      </trkpt>
      <trkpt lat="45.6766" lon="4.69185">
        <ele>372</ele>
        <time>2018-09-27T06:20:36Z</time>
      </trkpt>
      <trkpt lat="45.67698" lon="4.69219">
        <ele>370</ele>
        <time>2018-09-27T06:21:36Z</time>
      </trkpt>
      <trkpt lat="45.67727" lon="4.69267">
        <ele>368</ele>
        <time>2018-09-27T06:22:36Z</time>
      </trkpt>
      <trkpt lat="45.67748" lon="4.69318">
        <ele>367</ele>
        <time>2018-09-27T06:23:36Z</time>
      </trkpt>
      <trkpt lat="45.67772" lon="4.69363">
        <ele>367</ele>
        <time>2018-09-27T06:24:36Z</time>
      </trkpt>
      <trkpt lat="45.67779" lon="4.694">
        <ele>367</ele>
        <time>2018-09-27T06:25:36Z</time>
      </trkpt>
      <trkpt lat="45.67781" lon="4.69456">
        <ele>367</ele>
        <time>2018-09-27T06:26:36Z</time>
      </trkpt>
      <trkpt lat="45.67789" lon="4.69519">
        <ele>366</ele>
        <time>2018-09-27T06:27:36Z</time>
      </trkpt>
      <trkpt lat="45.6781" lon="4.69594">
        <ele>365</ele>
        <time>2018-09-27T06:28:36Z</time>
      </trkpt>
      <trkpt lat="45.67827" lon="4.69654">
        <ele>364</ele>
        <time>2018-09-27T06:29:36Z</time>
      </trkpt>
      <trkpt lat="45.67836" lon="4.69731">
        <ele>362</ele>
        <time>2018-09-27T06:30:36Z</time>
      </trkpt>
      <trkpt lat="45.67839" lon="4.69804">
        <ele>359</ele>
        <time>2018-09-27T06:31:36Z</time>
      </trkpt>
      <trkpt lat="45.67839" lon="4.69873">
        <ele>357</ele>
        <time>2018-09-27T06:32:36Z</time>
      </trkpt>
      <trkpt lat="45.67845" lon="4.69919">
        <ele>355</ele>
        <time>2018-09-27T06:33:36Z</time>
      </trkpt>
      <trkpt lat="45.67858" lon="4.69971">
        <ele>353</ele>
        <time>2018-09-27T06:34:36Z</time>
      </trkpt>
      <trkpt lat="45.67868" lon="4.70013">
        <ele>352</ele>
        <time>2018-09-27T06:35:36Z</time>
      </trkpt>
      <trkpt lat="45.67955" lon="4.70032">
        <ele>353</ele>
        <time>2018-09-27T06:36:36Z</time>
      </trkpt>
      <trkpt lat="45.67968" lon="4.70023">
        <ele>353</ele>
        <time>2018-09-27T06:37:36Z</time>
      </trkpt>
      <trkpt lat="45.67978" lon="4.69971">
        <ele>356</ele>
        <time>2018-09-27T06:38:36Z</time>
      </trkpt>
      <trkpt lat="45.67993" lon="4.69894">
        <ele>361</ele>
        <time>2018-09-27T06:39:36Z</time>
      </trkpt>
      <trkpt lat="45.68" lon="4.69857">
        <ele>362</ele>
        <time>2018-09-27T06:40:36Z</time>
      </trkpt>
      <trkpt lat="45.68078" lon="4.69718">
        <ele>363</ele>
        <time>2018-09-27T06:41:36Z</time>
      </trkpt>
      <trkpt lat="45.68101" lon="4.69734">
        <ele>362</ele>
        <time>2018-09-27T06:42:36Z</time>
      </trkpt>
      <trkpt lat="45.68135" lon="4.69755">
        <ele>360</ele>
        <time>2018-09-27T06:43:36Z</time>
      </trkpt>
      <trkpt lat="45.68179" lon="4.69787">
        <ele>357</ele>
        <time>2018-09-27T06:44:36Z</time>
      </trkpt>
      <trkpt lat="45.68214" lon="4.69813">
        <ele>355</ele>
        <time>2018-09-27T06:45:36Z</time>
      </trkpt>
      <trkpt lat="45.68271" lon="4.6987">
        <ele>353</ele>
        <time>2018-09-27T06:46:36Z</time>
      </trkpt>
      <trkpt lat="45.68304" lon="4.69913">
        <ele>352</ele>
        <time>2018-09-27T06:47:36Z</time>
      </trkpt>
      <trkpt lat="45.68335" lon="4.69955">
        <ele>352</ele>
        <time>2018-09-27T06:48:36Z</time>
      </trkpt>
      <trkpt lat="45.68357" lon="4.69971">
        <ele>352</ele>
        <time>2018-09-27T06:49:36Z</time>
      </trkpt>
      <trkpt lat="45.68343" lon="4.70015">
        <ele>353</ele>
        <time>2018-09-27T06:50:36Z</time>
      </trkpt>
      <trkpt lat="45.68322" lon="4.70057">
        <ele>352</ele>
        <time>2018-09-27T06:51:36Z</time>
      </trkpt>
      <trkpt lat="45.68294" lon="4.70158">
        <ele>350</ele>
        <time>2018-09-27T06:52:36Z</time>
      </trkpt>
      <trkpt lat="45.68284" lon="4.70243">
        <ele>349</ele>
        <time>2018-09-27T06:53:36Z</time>
      </trkpt>
      <trkpt lat="45.68269" lon="4.7028">
        <ele>347</ele>
        <time>2018-09-27T06:54:36Z</time>
      </trkpt>
      <trkpt lat="45.68247" lon="4.70321">
        <ele>344</ele>
        <time>2018-09-27T06:55:36Z</time>
      </trkpt>
      <trkpt lat="45.68229" lon="4.70338">
        <ele>343</ele>
        <time>2018-09-27T06:56:36Z</time>
      </trkpt>
      <trkpt lat="45.68244" lon="4.70363">
        <ele>343</ele>
        <time>2018-09-27T06:57:36Z</time>
      </trkpt>
      <trkpt lat="45.68282" lon="4.70398">
        <ele>343</ele>
        <time>2018-09-27T06:58:36Z</time>
      </trkpt>
      <trkpt lat="45.683" lon="4.70451">
        <ele>343</ele>
        <time>2018-09-27T06:59:36Z</time>
      </trkpt>
      <trkpt lat="45.68331" lon="4.70477">
        <ele>345</ele>
        <time>2018-09-27T07:00:36Z</time>
      </trkpt>
      <trkpt lat="45.68384" lon="4.70559">
        <ele>345</ele>
        <time>2018-09-27T07:01:36Z</time>
      </trkpt>
      <trkpt lat="45.68432" lon="4.70635">
        <ele>342</ele>
        <time>2018-09-27T07:02:36Z</time>
      </trkpt>
      <trkpt lat="45.68512" lon="4.70728">
        <ele>335</ele>
        <time>2018-09-27T07:03:36Z</time>
      </trkpt>
      <trkpt lat="45.6858" lon="4.70825">
        <ele>328</ele>
        <time>2018-09-27T07:04:36Z</time>
      </trkpt>
      <trkpt lat="45.68618" lon="4.70864">
        <ele>327</ele>
        <time>2018-09-27T07:05:36Z</time>
      </trkpt>
      <trkpt lat="45.68678" lon="4.70918">
        <ele>325</ele>
        <time>2018-09-27T07:06:36Z</time>
      </trkpt>
      <trkpt lat="45.68714" lon="4.70943">
        <ele>323</ele>
        <time>2018-09-27T07:07:36Z</time>
      </trkpt>
      <trkpt lat="45.68711" lon="4.71014">
        <ele>321</ele>
        <time>2018-09-27T07:08:36Z</time>
      </trkpt>
      <trkpt lat="45.68781" lon="4.71272">
        <ele>308</ele>
        <time>2018-09-27T07:09:36Z</time>
      </trkpt>
      <trkpt lat="45.68801" lon="4.71309">
        <ele>306</ele>
        <time>2018-09-27T07:10:36Z</time>
      </trkpt>
      <trkpt lat="45.68832" lon="4.71339">
        <ele>304</ele>
        <time>2018-09-27T07:11:36Z</time>
      </trkpt>
      <trkpt lat="45.68981" lon="4.71455">
        <ele>301</ele>
        <time>2018-09-27T07:12:36Z</time>
      </trkpt>
      <trkpt lat="45.69048" lon="4.71503">
        <ele>299</ele>
        <time>2018-09-27T07:13:36Z</time>
      </trkpt>
      <trkpt lat="45.69092" lon="4.71529">
        <ele>299</ele>
        <time>2018-09-27T07:14:36Z</time>
      </trkpt>
      <trkpt lat="45.69127" lon="4.71544">
        <ele>298</ele>
        <time>2018-09-27T07:15:36Z</time>
      </trkpt>
      <trkpt lat="45.69154" lon="4.71549">
        <ele>298</ele>
        <time>2018-09-27T07:16:36Z</time>
      </trkpt>
      <trkpt lat="45.69183" lon="4.7156">
        <ele>298</ele>
        <time>2018-09-27T07:17:36Z</time>
      </trkpt>
      <trkpt lat="45.69211" lon="4.71583">
        <ele>296</ele>
        <time>2018-09-27T07:18:36Z</time>
      </trkpt>
      <trkpt lat="45.69233" lon="4.71621">
        <ele>295</ele>
        <time>2018-09-27T07:19:36Z</time>
      </trkpt>
      <trkpt lat="45.69241" lon="4.71647">
        <ele>295</ele>
        <time>2018-09-27T07:20:36Z</time>
      </trkpt>
      <trkpt lat="45.69301" lon="4.71743">
        <ele>293</ele>
        <time>2018-09-27T07:21:36Z</time>
      </trkpt>
      <trkpt lat="45.69317" lon="4.71767">
        <ele>292</ele>
        <time>2018-09-27T07:22:36Z</time>
      </trkpt>
      <trkpt lat="45.69353" lon="4.71814">
        <ele>289</ele>
        <time>2018-09-27T07:23:36Z</time>
      </trkpt>
      <trkpt lat="45.69373" lon="4.71847">
        <ele>288</ele>
        <time>2018-09-27T07:24:36Z</time>
      </trkpt>
      <trkpt lat="45.69395" lon="4.71877">
        <ele>287</ele>
        <time>2018-09-27T07:25:36Z</time>
      </trkpt>
      <trkpt lat="45.69411" lon="4.71902">
        <ele>287</ele>
        <time>2018-09-27T07:26:36Z</time>
      </trkpt>
      <trkpt lat="45.69423" lon="4.7192">
        <ele>286</ele>
        <time>2018-09-27T07:27:36Z</time>
      </trkpt>
      <trkpt lat="45.69429" lon="4.71939">
        <ele>285</ele>
        <time>2018-09-27T07:28:36Z</time>
      </trkpt>
      <trkpt lat="45.69434" lon="4.71953">
        <ele>284</ele>
        <time>2018-09-27T07:29:36Z</time>
      </trkpt>
      <trkpt lat="45.6943" lon="4.71986">
        <ele>284</ele>
        <time>2018-09-27T07:30:36Z</time>
      </trkpt>
      <trkpt lat="45.69427" lon="4.72">
        <ele>285</ele>
        <time>2018-09-27T07:31:36Z</time>
      </trkpt>
      <trkpt lat="45.69432" lon="4.72018">
        <ele>282</ele>
        <time>2018-09-27T07:32:36Z</time>
      </trkpt>
      <trkpt lat="45.69434" lon="4.72034">
        <ele>279</ele>
        <time>2018-09-27T07:33:36Z</time>
      </trkpt>
      <trkpt lat="45.69433" lon="4.72058">
        <ele>277</ele>
        <time>2018-09-27T07:34:36Z</time>
      </trkpt>
      <trkpt lat="45.69434" lon="4.72115">
        <ele>271</ele>
        <time>2018-09-27T07:35:36Z</time>
      </trkpt>
      <trkpt lat="45.69437" lon="4.72154">
        <ele>266</ele>
        <time>2018-09-27T07:36:36Z</time>
      </trkpt>
      <trkpt lat="45.69442" lon="4.72199">
        <ele>261</ele>
        <time>2018-09-27T07:37:36Z</time>
      </trkpt>
      <trkpt lat="45.69446" lon="4.72241">
        <ele>258</ele>
        <time>2018-09-27T07:38:36Z</time>
      </trkpt>
      <trkpt lat="45.69448" lon="4.72279">
        <ele>254</ele>
        <time>2018-09-27T07:39:36Z</time>
      </trkpt>
      <trkpt lat="45.69448" lon="4.72295">
        <ele>252</ele>
        <time>2018-09-27T07:40:36Z</time>
      </trkpt>
      <trkpt lat="45.69442" lon="4.72319">
        <ele>249</ele>
        <time>2018-09-27T07:41:36Z</time>
      </trkpt>
      <trkpt lat="45.69431" lon="4.72339">
        <ele>248</ele>
        <time>2018-09-27T07:42:36Z</time>
      </trkpt>
      <trkpt lat="45.69441" lon="4.72364">
        <ele>244</ele>
        <time>2018-09-27T07:43:36Z</time>
      </trkpt>
      <trkpt lat="45.69459" lon="4.72385">
        <ele>241</ele>
        <time>2018-09-27T07:44:36Z</time>
      </trkpt>
      <trkpt lat="45.69471" lon="4.72402">
        <ele>239</ele>
        <time>2018-09-27T07:45:36Z</time>
      </trkpt>
      <trkpt lat="45.69476" lon="4.72416">
        <ele>238</ele>
        <time>2018-09-27T07:46:36Z</time>
      </trkpt>
      <trkpt lat="45.6947" lon="4.7243">
        <ele>237</ele>
        <time>2018-09-27T07:47:36Z</time>
      </trkpt>
      <trkpt lat="45.69447" lon="4.72444">
        <ele>237</ele>
        <time>2018-09-27T07:48:36Z</time>
      </trkpt>
      <trkpt lat="45.69429" lon="4.72485">
        <ele>234</ele>
        <time>2018-09-27T07:49:36Z</time>
      </trkpt>
      <trkpt lat="45.69417" lon="4.72539">
        <ele>233</ele>
        <time>2018-09-27T07:50:36Z</time>
      </trkpt>
      <trkpt lat="45.69416" lon="4.72565">
        <ele>233</ele>
        <time>2018-09-27T07:51:36Z</time>
      </trkpt>
      <trkpt lat="45.69407" lon="4.72596">
        <ele>234</ele>
        <time>2018-09-27T07:52:36Z</time>
      </trkpt>
      <trkpt lat="45.6941" lon="4.72601">
        <ele>235</ele>
        <time>2018-09-27T07:53:36Z</time>
      </trkpt>
      <trkpt lat="45.69402" lon="4.72612">
        <ele>235</ele>
        <time>2018-09-27T07:54:36Z</time>
      </trkpt>
      <trkpt lat="45.69354" lon="4.72642">
        <ele>235</ele>
        <time>2018-09-27T07:55:36Z</time>
      </trkpt>
      <trkpt lat="45.69239" lon="4.72765">
        <ele>235</ele>
        <time>2018-09-27T07:56:36Z</time>
      </trkpt>
      <trkpt lat="45.69179" lon="4.72861">
        <ele>235</ele>
        <time>2018-09-27T07:57:36Z</time>
      </trkpt>
      <trkpt lat="45.69125" lon="4.72991">
        <ele>235</ele>
        <time>2018-09-27T07:58:36Z</time>
      </trkpt>
      <trkpt lat="45.69104" lon="4.73088">
        <ele>231</ele>
        <time>2018-09-27T07:59:36Z</time>
      </trkpt>
      <trkpt lat="45.69141" lon="4.73113">
        <ele>233</ele>
        <time>2018-09-27T08:00:36Z</time>
      </trkpt>
      <trkpt lat="45.69195" lon="4.73156">
        <ele>238</ele>
        <time>2018-09-27T08:01:36Z</time>
      </trkpt>
      <trkpt lat="45.69228" lon="4.73265">
        <ele>234</ele>
        <time>2018-09-27T08:02:36Z</time>
      </trkpt>
      <trkpt lat="45.69201" lon="4.73357">
        <ele>227</ele>
        <time>2018-09-27T08:03:36Z</time>
      </trkpt>
      <trkpt lat="45.69192" lon="4.73428">
        <ele>227</ele>
        <time>2018-09-27T08:04:36Z</time>
      </trkpt>
      <trkpt lat="45.69176" lon="4.73452">
        <ele>228</ele>
        <time>2018-09-27T08:05:36Z</time>
      </trkpt>
      <trkpt lat="45.69155" lon="4.7347">
        <ele>228</ele>
        <time>2018-09-27T08:06:36Z</time>
      </trkpt>
      <trkpt lat="45.69133" lon="4.735">
        <ele>229</ele>
        <time>2018-09-27T08:07:36Z</time>
      </trkpt>
      <trkpt lat="45.69112" lon="4.73555">
        <ele>230</ele>
        <time>2018-09-27T08:08:36Z</time>
      </trkpt>
      <trkpt lat="45.69111" lon="4.73605">
        <ele>233</ele>
        <time>2018-09-27T08:09:36Z</time>
      </trkpt>
      <trkpt lat="45.69107" lon="4.73635">
        <ele>236</ele>
        <time>2018-09-27T08:10:36Z</time>
      </trkpt>
      <trkpt lat="45.69082" lon="4.73682">
        <ele>235</ele>
        <time>2018-09-27T08:11:36Z</time>
      </trkpt>
      <trkpt lat="45.69064" lon="4.73723">
        <ele>236</ele>
        <time>2018-09-27T08:12:36Z</time>
      </trkpt>
      <trkpt lat="45.6906" lon="4.73749">
        <ele>237</ele>
        <time>2018-09-27T08:13:36Z</time>
      </trkpt>
      <trkpt lat="45.69064" lon="4.7379">
        <ele>238</ele>
        <time>2018-09-27T08:14:36Z</time>
      </trkpt>
      <trkpt lat="45.69062" lon="4.7381">
        <ele>237</ele>
        <time>2018-09-27T08:15:36Z</time>
      </trkpt>
      <trkpt lat="45.69064" lon="4.7383">
        <ele>237</ele>
        <time>2018-09-27T08:16:36Z</time>
      </trkpt>
      <trkpt lat="45.69055" lon="4.73864">
        <ele>237</ele>
        <time>2018-09-27T08:17:36Z</time>
      </trkpt>
      <trkpt lat="45.69038" lon="4.73928">
        <ele>237</ele>
        <time>2018-09-27T08:18:36Z</time>
      </trkpt>
      <trkpt lat="45.69011" lon="4.7399">
        <ele>235</ele>
        <time>2018-09-27T08:19:36Z</time>
      </trkpt>
      <trkpt lat="45.68976" lon="4.74063">
        <ele>233</ele>
        <time>2018-09-27T08:20:36Z</time>
      </trkpt>
      <trkpt lat="45.68958" lon="4.74092">
        <ele>232</ele>
        <time>2018-09-27T08:21:36Z</time>
      </trkpt>
      <trkpt lat="45.68912" lon="4.74162">
        <ele>230</ele>
        <time>2018-09-27T08:22:36Z</time>
      </trkpt>
      <trkpt lat="45.68859" lon="4.74342">
        <ele>229</ele>
        <time>2018-09-27T08:23:36Z</time>
      </trkpt>
      <trkpt lat="45.6882" lon="4.74416">
        <ele>222</ele>
        <time>2018-09-27T08:24:36Z</time>
      </trkpt>
      <trkpt lat="45.68814" lon="4.7447">
        <ele>224</ele>
        <time>2018-09-27T08:25:36Z</time>
      </trkpt>
      <trkpt lat="45.68813" lon="4.74523">
        <ele>226</ele>
        <time>2018-09-27T08:26:36Z</time>
      </trkpt>
      <trkpt lat="45.68812" lon="4.7455">
        <ele>226</ele>
        <time>2018-09-27T08:27:36Z</time>
      </trkpt>
      <trkpt lat="45.68806" lon="4.74575">
        <ele>226</ele>
        <time>2018-09-27T08:28:36Z</time>
      </trkpt>
      <trkpt lat="45.68801" lon="4.74592">
        <ele>226</ele>
        <time>2018-09-27T08:29:36Z</time>
      </trkpt>
      <trkpt lat="45.68776" lon="4.74647">
        <ele>228</ele>
        <time>2018-09-27T08:30:36Z</time>
      </trkpt>
      <trkpt lat="45.68779" lon="4.74651">
        <ele>229</ele>
        <time>2018-09-27T08:31:36Z</time>
      </trkpt>
      <trkpt lat="45.68797" lon="4.74657">
        <ele>234</ele>
        <time>2018-09-27T08:32:36Z</time>
      </trkpt>
      <trkpt lat="45.68838" lon="4.74666">
        <ele>244</ele>
        <time>2018-09-27T08:33:36Z</time>
      </trkpt>
      <trkpt lat="45.6889" lon="4.74657">
        <ele>255</ele>
        <time>2018-09-27T08:34:36Z</time>
      </trkpt>
      <trkpt lat="45.68923" lon="4.74666">
        <ele>263</ele>
        <time>2018-09-27T08:35:36Z</time>
      </trkpt>
      <trkpt lat="45.6896" lon="4.74678">
        <ele>269</ele>
        <time>2018-09-27T08:36:36Z</time>
      </trkpt>
      <trkpt lat="45.69025" lon="4.7471">
        <ele>279</ele>
        <time>2018-09-27T08:37:36Z</time>
      </trkpt>
      <trkpt lat="45.69051" lon="4.74712">
        <ele>281</ele>
        <time>2018-09-27T08:38:36Z</time>
      </trkpt>
      <trkpt lat="45.69066" lon="4.74701">
        <ele>281</ele>
        <time>2018-09-27T08:39:36Z</time>
      </trkpt>
      <trkpt lat="45.69084" lon="4.7466">
        <ele>281</ele>
        <time>2018-09-27T08:40:36Z</time>
      </trkpt>
      <trkpt lat="45.69126" lon="4.74655">
        <ele>284</ele>
        <time>2018-09-27T08:41:36Z</time>
      </trkpt>
      <trkpt lat="45.6918" lon="4.74648">
        <ele>288</ele>
        <time>2018-09-27T08:42:36Z</time>
      </trkpt>
      <trkpt lat="45.6922" lon="4.74652">
        <ele>290</ele>
        <time>2018-09-27T08:43:36Z</time>
      </trkpt>
      <trkpt lat="45.69273" lon="4.74669">
        <ele>291</ele>
        <time>2018-09-27T08:44:36Z</time>
      </trkpt>
      <trkpt lat="45.69316" lon="4.74672">
        <ele>292</ele>
        <time>2018-09-27T08:45:36Z</time>
      </trkpt>
      <trkpt lat="45.69391" lon="4.74683">
        <ele>292</ele>
        <time>2018-09-27T08:46:36Z</time>
      </trkpt>
      <trkpt lat="45.69488" lon="4.7466">
        <ele>293</ele>
        <time>2018-09-27T08:47:36Z</time>
      </trkpt>
      <trkpt lat="45.6955" lon="4.74644">
        <ele>295</ele>
        <time>2018-09-27T08:48:36Z</time>
      </trkpt>
      <trkpt lat="45.69593" lon="4.74627">
        <ele>296</ele>
        <time>2018-09-27T08:49:36Z</time>
      </trkpt>
      <trkpt lat="45.69675" lon="4.74589">
        <ele>299</ele>
        <time>2018-09-27T08:50:36Z</time>
      </trkpt>
      <trkpt lat="45.69703" lon="4.74579">
        <ele>300</ele>
        <time>2018-09-27T08:51:36Z</time>
      </trkpt>
      <trkpt lat="45.69737" lon="4.74577">
        <ele>301</ele>
        <time>2018-09-27T08:52:36Z</time>
      </trkpt>
      <trkpt lat="45.69771" lon="4.74575">
        <ele>302</ele>
        <time>2018-09-27T08:53:36Z</time>
      </trkpt>
      <trkpt lat="45.69797" lon="4.74582">
        <ele>303</ele>
        <time>2018-09-27T08:54:36Z</time>
      </trkpt>
      <trkpt lat="45.69825" lon="4.74608">
        <ele>304</ele>
        <time>2018-09-27T08:55:36Z</time>
      </trkpt>
      <trkpt lat="45.69853" lon="4.74645">
        <ele>304</ele>
        <time>2018-09-27T08:56:36Z</time>
      </trkpt>
      <trkpt lat="45.69878" lon="4.74684">
        <ele>305</ele>
        <time>2018-09-27T08:57:36Z</time>
      </trkpt>
      <trkpt lat="45.69898" lon="4.74711">
        <ele>305</ele>
        <time>2018-09-27T08:58:36Z</time>
      </trkpt>
      <trkpt lat="45.6991" lon="4.74732">
        <ele>305</ele>
        <time>2018-09-27T08:59:36Z</time>
      </trkpt>
      <trkpt lat="45.69922" lon="4.74742">
        <ele>305</ele>
        <time>2018-09-27T09:00:36Z</time>
      </trkpt>
      <trkpt lat="45.6993" lon="4.7474">
        <ele>305</ele>
        <time>2018-09-27T09:01:36Z</time>
      </trkpt>
      <trkpt lat="45.70028" lon="4.74686">
        <ele>309</ele>
        <time>2018-09-27T09:02:36Z</time>
      </trkpt>
      <trkpt lat="45.70063" lon="4.74666">
        <ele>311</ele>
        <time>2018-09-27T09:03:36Z</time>
      </trkpt>
      <trkpt lat="45.70101" lon="4.74635">
        <ele>312</ele>
        <time>2018-09-27T09:04:36Z</time>
      </trkpt>
      <trkpt lat="45.70114" lon="4.7462">
        <ele>313</ele>
        <time>2018-09-27T09:05:36Z</time>
      </trkpt>
      <trkpt lat="45.70131" lon="4.74616">
        <ele>313</ele>
        <time>2018-09-27T09:06:36Z</time>
      </trkpt>
      <trkpt lat="45.70161" lon="4.74604">
        <ele>314</ele>
        <time>2018-09-27T09:07:36Z</time>
      </trkpt>
      <trkpt lat="45.7029" lon="4.74589">
        <ele>313</ele>
        <time>2018-09-27T09:08:36Z</time>
      </trkpt>
      <trkpt lat="45.70379" lon="4.74577">
        <ele>312</ele>
        <time>2018-09-27T09:09:36Z</time>
      </trkpt>
      <trkpt lat="45.70424" lon="4.74577">
        <ele>312</ele>
        <time>2018-09-27T09:10:36Z</time>
      </trkpt>
      <trkpt lat="45.70436" lon="4.74577">
        <ele>312</ele>
        <time>2018-09-27T09:11:36Z</time>
      </trkpt>
      <trkpt lat="45.70471" lon="4.74594">
        <ele>311</ele>
        <time>2018-09-27T09:12:36Z</time>
      </trkpt>
      <trkpt lat="45.70552" lon="4.74631">
        <ele>308</ele>
        <time>2018-09-27T09:13:36Z</time>
      </trkpt>
      <trkpt lat="45.70537" lon="4.7465">
        <ele>308</ele>
        <time>2018-09-27T09:14:36Z</time>
      </trkpt>
      <trkpt lat="45.70559" lon="4.74849">
        <ele>298</ele>
        <time>2018-09-27T09:15:36Z</time>
      </trkpt>
      <trkpt lat="45.70574" lon="4.74867">
        <ele>297</ele>
        <time>2018-09-27T09:16:36Z</time>
      </trkpt>
      <trkpt lat="45.70596" lon="4.74881">
        <ele>295</ele>
        <time>2018-09-27T09:17:36Z</time>
      </trkpt>
      <trkpt lat="45.70617" lon="4.74892">
        <ele>294</ele>
        <time>2018-09-27T09:18:36Z</time>
      </trkpt>
      <trkpt lat="45.70659" lon="4.74889">
        <ele>293</ele>
        <time>2018-09-27T09:19:36Z</time>
      </trkpt>
      <trkpt lat="45.7068" lon="4.74902">
        <ele>292</ele>
        <time>2018-09-27T09:20:36Z</time>
      </trkpt>
      <trkpt lat="45.70691" lon="4.74912">
        <ele>291</ele>
        <time>2018-09-27T09:21:36Z</time>
      </trkpt>
      <trkpt lat="45.70713" lon="4.74889">
        <ele>292</ele>
        <time>2018-09-27T09:22:36Z</time>
      </trkpt>
      <trkpt lat="45.70726" lon="4.74883">
        <ele>292</ele>
        <time>2018-09-27T09:23:36Z</time>
      </trkpt>
      <trkpt lat="45.70751" lon="4.74881">
        <ele>292</ele>
        <time>2018-09-27T09:24:36Z</time>
      </trkpt>
      <trkpt lat="45.70775" lon="4.74874">
        <ele>293</ele>
        <time>2018-09-27T09:25:36Z</time>
      </trkpt>
      <trkpt lat="45.70785" lon="4.74856">
        <ele>294</ele>
        <time>2018-09-27T09:26:36Z</time>
      </trkpt>
      <trkpt lat="45.70861" lon="4.74831">
        <ele>295</ele>
        <time>2018-09-27T09:27:36Z</time>
      </trkpt>
      <trkpt lat="45.70881" lon="4.74808">
        <ele>296</ele>
        <time>2018-09-27T09:28:36Z</time>
      </trkpt>
      <trkpt lat="45.709" lon="4.74813">
        <ele>295</ele>
        <time>2018-09-27T09:29:36Z</time>
      </trkpt>
      <trkpt lat="45.70947" lon="4.74801">
        <ele>297</ele>
        <time>2018-09-27T09:30:36Z</time>
      </trkpt>
      <trkpt lat="45.70968" lon="4.74812">
        <ele>297</ele>
        <time>2018-09-27T09:31:36Z</time>
      </trkpt>
      <trkpt lat="45.70983" lon="4.74822">
        <ele>298</ele>
        <time>2018-09-27T09:32:36Z</time>
      </trkpt>
      <trkpt lat="45.70991" lon="4.74858">
        <ele>299</ele>
        <time>2018-09-27T09:33:36Z</time>
      </trkpt>
      <trkpt lat="45.70932" lon="4.74885">
        <ele>298</ele>
        <time>2018-09-27T09:34:36Z</time>
      </trkpt>
      <trkpt lat="45.70881" lon="4.74899">
        <ele>296</ele>
        <time>2018-09-27T09:35:36Z</time>
      </trkpt>
      <trkpt lat="45.70818" lon="4.74929">
        <ele>292</ele>
        <time>2018-09-27T09:36:36Z</time>
      </trkpt>
      <trkpt lat="45.70786" lon="4.74948">
        <ele>291</ele>
        <time>2018-09-27T09:37:36Z</time>
      </trkpt>
      <trkpt lat="45.70767" lon="4.74991">
        <ele>289</ele>
        <time>2018-09-27T09:38:36Z</time>
      </trkpt>
      <trkpt lat="45.70753" lon="4.75006">
        <ele>286</ele>
        <time>2018-09-27T09:39:36Z</time>
      </trkpt>
      <trkpt lat="45.70749" lon="4.75028">
        <ele>286</ele>
        <time>2018-09-27T09:40:36Z</time>
      </trkpt>
      <trkpt lat="45.70749" lon="4.75059">
        <ele>285</ele>
        <time>2018-09-27T09:41:36Z</time>
      </trkpt>
      <trkpt lat="45.7075" lon="4.75078">
        <ele>285</ele>
        <time>2018-09-27T09:42:36Z</time>
      </trkpt>
      <trkpt lat="45.70753" lon="4.75102">
        <ele>287</ele>
        <time>2018-09-27T09:43:36Z</time>
      </trkpt>
      <trkpt lat="45.70747" lon="4.75114">
        <ele>287</ele>
        <time>2018-09-27T09:44:36Z</time>
      </trkpt>
      <trkpt lat="45.70727" lon="4.75126">
        <ele>288</ele>
        <time>2018-09-27T09:45:36Z</time>
      </trkpt>
      <trkpt lat="45.70704" lon="4.75132">
        <ele>287</ele>
        <time>2018-09-27T09:46:36Z</time>
      </trkpt>
      <trkpt lat="45.70672" lon="4.75142">
        <ele>286</ele>
        <time>2018-09-27T09:47:36Z</time>
      </trkpt>
      <trkpt lat="45.7066" lon="4.75141">
        <ele>286</ele>
        <time>2018-09-27T09:48:36Z</time>
      </trkpt>
      <trkpt lat="45.70647" lon="4.75136">
        <ele>284</ele>
        <time>2018-09-27T09:49:36Z</time>
      </trkpt>
      <trkpt lat="45.70599" lon="4.75155">
        <ele>280</ele>
        <time>2018-09-27T09:50:36Z</time>
      </trkpt>
      <trkpt lat="45.70485" lon="4.75334">
        <ele>274</ele>
        <time>2018-09-27T09:51:36Z</time>
      </trkpt>
      <trkpt lat="45.70443" lon="4.75369">
        <ele>273</ele>
        <time>2018-09-27T09:52:36Z</time>
      </trkpt>
      <trkpt lat="45.7043" lon="4.75387">
        <ele>273</ele>
        <time>2018-09-27T09:53:36Z</time>
      </trkpt>
      <trkpt lat="45.70428" lon="4.75401">
        <ele>274</ele>
        <time>2018-09-27T09:54:36Z</time>
      </trkpt>
      <trkpt lat="45.70428" lon="4.75409">
        <ele>275</ele>
        <time>2018-09-27T09:55:36Z</time>
      </trkpt>
      <trkpt lat="45.7043" lon="4.75419">
        <ele>276</ele>
        <time>2018-09-27T09:56:36Z</time>
      </trkpt>
      <trkpt lat="45.70457" lon="4.75515">
        <ele>286</ele>
        <time>2018-09-27T09:57:36Z</time>
      </trkpt>
      <trkpt lat="45.70531" lon="4.75515">
        <ele>291</ele>
        <time>2018-09-27T09:58:36Z</time>
      </trkpt>
      <trkpt lat="45.70553" lon="4.75532">
        <ele>294</ele>
        <time>2018-09-27T09:59:36Z</time>
      </trkpt>
      <trkpt lat="45.70567" lon="4.75551">
        <ele>296</ele>
        <time>2018-09-27T10:00:36Z</time>
      </trkpt>
      <trkpt lat="45.70575" lon="4.75572">
        <ele>299</ele>
        <time>2018-09-27T10:01:36Z</time>
      </trkpt>
      <trkpt lat="45.70578" lon="4.75617">
        <ele>300</ele>
        <time>2018-09-27T10:02:36Z</time>
      </trkpt>
      <trkpt lat="45.70581" lon="4.75663">
        <ele>302</ele>
        <time>2018-09-27T10:03:36Z</time>
      </trkpt>
      <trkpt lat="45.70589" lon="4.75707">
        <ele>304</ele>
        <time>2018-09-27T10:04:36Z</time>
      </trkpt>
      <trkpt lat="45.70599" lon="4.7574">
        <ele>305</ele>
        <time>2018-09-27T10:05:36Z</time>
      </trkpt>
      <trkpt lat="45.70609" lon="4.75767">
        <ele>306</ele>
        <time>2018-09-27T10:06:36Z</time>
      </trkpt>
      <trkpt lat="45.70619" lon="4.75784">
        <ele>306</ele>
        <time>2018-09-27T10:07:36Z</time>
      </trkpt>
      <trkpt lat="45.70624" lon="4.75845">
        <ele>305</ele>
        <time>2018-09-27T10:08:36Z</time>
      </trkpt>
      <trkpt lat="45.70626" lon="4.75866">
        <ele>304</ele>
        <time>2018-09-27T10:09:36Z</time>
      </trkpt>
      <trkpt lat="45.70625" lon="4.75869">
        <ele>304</ele>
        <time>2018-09-27T10:10:36Z</time>
      </trkpt>
      <trkpt lat="45.70635" lon="4.75931">
        <ele>303</ele>
        <time>2018-09-27T10:11:36Z</time>
      </trkpt>
      <trkpt lat="45.70639" lon="4.75974">
        <ele>301</ele>
        <time>2018-09-27T10:12:36Z</time>
      </trkpt>
      <trkpt lat="45.7063" lon="4.76021">
        <ele>299</ele>
        <time>2018-09-27T10:13:36Z</time>
      </trkpt>
      <trkpt lat="45.70626" lon="4.76066">
        <ele>297</ele>
        <time>2018-09-27T10:14:36Z</time>
      </trkpt>
      <trkpt lat="45.70627" lon="4.76105">
        <ele>295</ele>
        <time>2018-09-27T10:15:36Z</time>
      </trkpt>
      <trkpt lat="45.70629" lon="4.76111">
        <ele>294</ele>
        <time>2018-09-27T10:16:36Z</time>
      </trkpt>
      <trkpt lat="45.70651" lon="4.76105">
        <ele>297</ele>
        <time>2018-09-27T10:17:36Z</time>
      </trkpt>
      <trkpt lat="45.70791" lon="4.76113">
        <ele>304</ele>
        <time>2018-09-27T10:18:36Z</time>
      </trkpt>
      <trkpt lat="45.70809" lon="4.76108">
        <ele>305</ele>
        <time>2018-09-27T10:19:36Z</time>
      </trkpt>
      <trkpt lat="45.70832" lon="4.76089">
        <ele>308</ele>
        <time>2018-09-27T10:20:36Z</time>
      </trkpt>
      <trkpt lat="45.70844" lon="4.76083">
        <ele>310</ele>
        <time>2018-09-27T10:21:36Z</time>
      </trkpt>
      <trkpt lat="45.70858" lon="4.76079">
        <ele>311</ele>
        <time>2018-09-27T10:22:36Z</time>
      </trkpt>
      <trkpt lat="45.70867" lon="4.76079">
        <ele>312</ele>
        <time>2018-09-27T10:23:36Z</time>
      </trkpt>
      <trkpt lat="45.70877" lon="4.76086">
        <ele>312</ele>
        <time>2018-09-27T10:24:36Z</time>
      </trkpt>
      <trkpt lat="45.70912" lon="4.76101">
        <ele>314</ele>
        <time>2018-09-27T10:25:36Z</time>
      </trkpt>
      <trkpt lat="45.70909" lon="4.76121">
        <ele>312</ele>
        <time>2018-09-27T10:26:36Z</time>
      </trkpt>
      <trkpt lat="45.70907" lon="4.76142">
        <ele>311</ele>
        <time>2018-09-27T10:27:36Z</time>
      </trkpt>
      <trkpt lat="45.709" lon="4.76257">
        <ele>301</ele>
        <time>2018-09-27T10:28:36Z</time>
      </trkpt>
      <trkpt lat="45.70888" lon="4.76345">
        <ele>294</ele>
        <time>2018-09-27T10:29:36Z</time>
      </trkpt>
      <trkpt lat="45.70891" lon="4.76354">
        <ele>292</ele>
        <time>2018-09-27T10:30:36Z</time>
      </trkpt>
      <trkpt lat="45.709" lon="4.76363">
        <ele>291</ele>
        <time>2018-09-27T10:31:36Z</time>
      </trkpt>
      <trkpt lat="45.70914" lon="4.76369">
        <ele>290</ele>
        <time>2018-09-27T10:32:36Z</time>
      </trkpt>
      <trkpt lat="45.70927" lon="4.76367">
        <ele>291</ele>
        <time>2018-09-27T10:33:36Z</time>
      </trkpt>
      <trkpt lat="45.70938" lon="4.76368">
        <ele>290</ele>
        <time>2018-09-27T10:34:36Z</time>
      </trkpt>
      <trkpt lat="45.70954" lon="4.76368">
        <ele>290</ele>
        <time>2018-09-27T10:35:36Z</time>
      </trkpt>
      <trkpt lat="45.70975" lon="4.76366">
        <ele>290</ele>
        <time>2018-09-27T10:36:36Z</time>
      </trkpt>
      <trkpt lat="45.70987" lon="4.76365">
        <ele>290</ele>
        <time>2018-09-27T10:37:36Z</time>
      </trkpt>
      <trkpt lat="45.71" lon="4.76358">
        <ele>292</ele>
        <time>2018-09-27T10:38:36Z</time>
      </trkpt>
      <trkpt lat="45.71008" lon="4.76355">
        <ele>293</ele>
        <time>2018-09-27T10:39:36Z</time>
      </trkpt>
      <trkpt lat="45.71013" lon="4.76352">
        <ele>294</ele>
        <time>2018-09-27T10:40:36Z</time>
      </trkpt>
      <trkpt lat="45.71016" lon="4.76347">
        <ele>295</ele>
        <time>2018-09-27T10:41:36Z</time>
      </trkpt>
      <trkpt lat="45.71019" lon="4.76345">
        <ele>295</ele>
        <time>2018-09-27T10:42:36Z</time>
      </trkpt>
      <trkpt lat="45.71022" lon="4.76347">
        <ele>295</ele>
        <time>2018-09-27T10:43:36Z</time>
      </trkpt>
      <trkpt lat="45.71013" lon="4.76424">
        <ele>281</ele>
        <time>2018-09-27T10:44:36Z</time>
      </trkpt>
      <trkpt lat="45.71037" lon="4.76443">
        <ele>281</ele>
        <time>2018-09-27T10:45:36Z</time>
      </trkpt>
      <trkpt lat="45.71035" lon="4.76446">
        <ele>281</ele>
        <time>2018-09-27T10:46:36Z</time>
      </trkpt>
      <trkpt lat="45.71029" lon="4.76453">
        <ele>279</ele>
        <time>2018-09-27T10:47:36Z</time>
      </trkpt>
      <trkpt lat="45.71023" lon="4.7646">
        <ele>277</ele>
        <time>2018-09-27T10:48:36Z</time>
      </trkpt>
      <trkpt lat="45.71019" lon="4.76474">
        <ele>274</ele>
        <time>2018-09-27T10:49:36Z</time>
      </trkpt>
      <trkpt lat="45.71014" lon="4.76488">
        <ele>270</ele>
        <time>2018-09-27T10:50:36Z</time>
      </trkpt>
      <trkpt lat="45.71007" lon="4.76516">
        <ele>265</ele>
        <time>2018-09-27T10:51:36Z</time>
      </trkpt>
      <trkpt lat="45.71004" lon="4.76532">
        <ele>262</ele>
        <time>2018-09-27T10:52:36Z</time>
      </trkpt>
      <trkpt lat="45.71006" lon="4.76554">
        <ele>260</ele>
        <time>2018-09-27T10:53:36Z</time>
      </trkpt>
      <trkpt lat="45.71041" lon="4.76627">
        <ele>254</ele>
        <time>2018-09-27T10:54:36Z</time>
      </trkpt>
      <trkpt lat="45.71047" lon="4.76642">
        <ele>252</ele>
        <time>2018-09-27T10:55:36Z</time>
      </trkpt>
      <trkpt lat="45.7106" lon="4.76684">
        <ele>248</ele>
        <time>2018-09-27T10:56:36Z</time>
      </trkpt>
      <trkpt lat="45.71071" lon="4.7672">
        <ele>246</ele>
        <time>2018-09-27T10:57:36Z</time>
      </trkpt>
      <trkpt lat="45.71087" lon="4.768">
        <ele>242</ele>
        <time>2018-09-27T10:58:36Z</time>
      </trkpt>
      <trkpt lat="45.71102" lon="4.76855">
        <ele>238</ele>
        <time>2018-09-27T10:59:36Z</time>
      </trkpt>
      <trkpt lat="45.71117" lon="4.76905">
        <ele>235</ele>
        <time>2018-09-27T11:00:36Z</time>
      </trkpt>
      <trkpt lat="45.71128" lon="4.76935">
        <ele>234</ele>
        <time>2018-09-27T11:01:36Z</time>
      </trkpt>
      <trkpt lat="45.71137" lon="4.7696">
        <ele>234</ele>
        <time>2018-09-27T11:02:36Z</time>
      </trkpt>
      <trkpt lat="45.71141" lon="4.76986">
        <ele>233</ele>
        <time>2018-09-27T11:03:36Z</time>
      </trkpt>
      <trkpt lat="45.71144" lon="4.76993">
        <ele>234</ele>
        <time>2018-09-27T11:04:36Z</time>
      </trkpt>
      <trkpt lat="45.71161" lon="4.77">
        <ele>235</ele>
        <time>2018-09-27T11:05:36Z</time>
      </trkpt>
      <trkpt lat="45.71174" lon="4.77003">
        <ele>235</ele>
        <time>2018-09-27T11:06:36Z</time>
      </trkpt>
      <trkpt lat="45.71186" lon="4.77005">
        <ele>235</ele>
        <time>2018-09-27T11:07:36Z</time>
      </trkpt>
      <trkpt lat="45.71206" lon="4.77003">
        <ele>236</ele>
        <time>2018-09-27T11:08:36Z</time>
      </trkpt>
      <trkpt lat="45.71219" lon="4.77">
        <ele>237</ele>
        <time>2018-09-27T11:09:36Z</time>
      </trkpt>
      <trkpt lat="45.7125" lon="4.77002">
        <ele>238</ele>
        <time>2018-09-27T11:10:36Z</time>
      </trkpt>
      <trkpt lat="45.71289" lon="4.77">
        <ele>238</ele>
        <time>2018-09-27T11:11:36Z</time>
      </trkpt>
      <trkpt lat="45.71331" lon="4.76992">
        <ele>237</ele>
        <time>2018-09-27T11:12:36Z</time>
      </trkpt>
      <trkpt lat="45.71355" lon="4.76988">
        <ele>239</ele>
        <time>2018-09-27T11:13:36Z</time>
      </trkpt>
      <trkpt lat="45.71376" lon="4.76985">
        <ele>240</ele>
        <time>2018-09-27T11:14:36Z</time>
      </trkpt>
      <trkpt lat="45.714" lon="4.76982">
        <ele>242</ele>
        <time>2018-09-27T11:15:36Z</time>
      </trkpt>
      <trkpt lat="45.71419" lon="4.76977">
        <ele>244</ele>
        <time>2018-09-27T11:16:36Z</time>
      </trkpt>
      <trkpt lat="45.71443" lon="4.76973">
        <ele>245</ele>
        <time>2018-09-27T11:17:36Z</time>
      </trkpt>
      <trkpt lat="45.71457" lon="4.76968">
        <ele>246</ele>
        <time>2018-09-27T11:18:36Z</time>
      </trkpt>
      <trkpt lat="45.71469" lon="4.76968">
        <ele>247</ele>
        <time>2018-09-27T11:19:36Z</time>
      </trkpt>
      <trkpt lat="45.71486" lon="4.76966">
        <ele>248</ele>
        <time>2018-09-27T11:20:36Z</time>
      </trkpt>
      <trkpt lat="45.71521" lon="4.76955">
        <ele>249</ele>
        <time>2018-09-27T11:21:36Z</time>
      </trkpt>
      <trkpt lat="45.71549" lon="4.76947">
        <ele>251</ele>
        <time>2018-09-27T11:22:36Z</time>
      </trkpt>
      <trkpt lat="45.71563" lon="4.76941">
        <ele>251</ele>
        <time>2018-09-27T11:23:36Z</time>
      </trkpt>
      <trkpt lat="45.71599" lon="4.76928">
        <ele>252</ele>
        <time>2018-09-27T11:24:36Z</time>
      </trkpt>
      <trkpt lat="45.7161" lon="4.76928">
        <ele>252</ele>
        <time>2018-09-27T11:25:36Z</time>
      </trkpt>
      <trkpt lat="45.71609" lon="4.76939">
        <ele>252</ele>
        <time>2018-09-27T11:26:36Z</time>
      </trkpt>
      <trkpt lat="45.71608" lon="4.76966">
        <ele>250</ele>
        <time>2018-09-27T11:27:36Z</time>
      </trkpt>
      <trkpt lat="45.71605" lon="4.76985">
        <ele>250</ele>
        <time>2018-09-27T11:28:36Z</time>
      </trkpt>
      <trkpt lat="45.71604" lon="4.7699">
        <ele>249</ele>
        <time>2018-09-27T11:29:36Z</time>
      </trkpt>
      <trkpt lat="45.71737" lon="4.77024">
        <ele>247</ele>
        <time>2018-09-27T11:30:36Z</time>
      </trkpt>
      <trkpt lat="45.71742" lon="4.77062">
        <ele>246</ele>
        <time>2018-09-27T11:31:36Z</time>
      </trkpt>
      <trkpt lat="45.7176" lon="4.7706">
        <ele>246</ele>
        <time>2018-09-27T11:32:36Z</time>
      </trkpt>
      <trkpt lat="45.71783" lon="4.77056">
        <ele>245</ele>
        <time>2018-09-27T11:33:36Z</time>
      </trkpt>
      <trkpt lat="45.71795" lon="4.77052">
        <ele>245</ele>
        <time>2018-09-27T11:34:36Z</time>
      </trkpt>
      <trkpt lat="45.71808" lon="4.77049">
        <ele>244</ele>
        <time>2018-09-27T11:35:36Z</time>
      </trkpt>
      <trkpt lat="45.71841" lon="4.77058">
        <ele>243</ele>
        <time>2018-09-27T11:36:36Z</time>
      </trkpt>
      <trkpt lat="45.71865" lon="4.77066">
        <ele>244</ele>
        <time>2018-09-27T11:37:36Z</time>
      </trkpt>
      <trkpt lat="45.71887" lon="4.77073">
        <ele>244</ele>
        <time>2018-09-27T11:38:36Z</time>
      </trkpt>
      <trkpt lat="45.71925" lon="4.77088">
        <ele>245</ele>
        <time>2018-09-27T11:39:36Z</time>
      </trkpt>
      <trkpt lat="45.7193" lon="4.77092">
        <ele>245</ele>
        <time>2018-09-27T11:40:36Z</time>
      </trkpt>
      <trkpt lat="45.71931" lon="4.77111">
        <ele>244</ele>
        <time>2018-09-27T11:41:36Z</time>
      </trkpt>
      <trkpt lat="45.71933" lon="4.77132">
        <ele>243</ele>
        <time>2018-09-27T11:42:36Z</time>
      </trkpt>
      <trkpt lat="45.71929" lon="4.77154">
        <ele>242</ele>
        <time>2018-09-27T11:43:36Z</time>
      </trkpt>
      <trkpt lat="45.71926" lon="4.77162">
        <ele>241</ele>
        <time>2018-09-27T11:44:36Z</time>
      </trkpt>
      <trkpt lat="45.71921" lon="4.77177">
        <ele>241</ele>
        <time>2018-09-27T11:45:36Z</time>
      </trkpt>
      <trkpt lat="45.71919" lon="4.77185">
        <ele>241</ele>
        <time>2018-09-27T11:46:36Z</time>
      </trkpt>
      <trkpt lat="45.71916" lon="4.772">
        <ele>240</ele>
        <time>2018-09-27T11:47:36Z</time>
      </trkpt>
      <trkpt lat="45.71917" lon="4.77223">
        <ele>240</ele>
        <time>2018-09-27T11:48:36Z</time>
      </trkpt>
      <trkpt lat="45.71922" lon="4.77253">
        <ele>239</ele>
        <time>2018-09-27T11:49:36Z</time>
      </trkpt>
      <trkpt lat="45.71926" lon="4.77266">
        <ele>239</ele>
        <time>2018-09-27T11:50:36Z</time>
      </trkpt>
      <trkpt lat="45.72039" lon="4.77236">
        <ele>241</ele>
        <time>2018-09-27T11:51:36Z</time>
      </trkpt>
      <trkpt lat="45.72054" lon="4.77289">
        <ele>240</ele>
        <time>2018-09-27T11:52:36Z</time>
      </trkpt>
      <trkpt lat="45.72063" lon="4.77324">
        <ele>239</ele>
        <time>2018-09-27T11:53:36Z</time>
      </trkpt>
      <trkpt lat="45.72067" lon="4.7735">
        <ele>238</ele>
        <time>2018-09-27T11:54:36Z</time>
      </trkpt>
      <trkpt lat="45.72063" lon="4.77375">
        <ele>238</ele>
        <time>2018-09-27T11:55:36Z</time>
      </trkpt>
      <trkpt lat="45.72059" lon="4.77399">
        <ele>237</ele>
        <time>2018-09-27T11:56:36Z</time>
      </trkpt>
      <trkpt lat="45.72059" lon="4.77428">
        <ele>236</ele>
        <time>2018-09-27T11:57:36Z</time>
      </trkpt>
      <trkpt lat="45.72064" lon="4.7744">
        <ele>235</ele>
        <time>2018-09-27T11:58:36Z</time>
      </trkpt>
      <trkpt lat="45.72076" lon="4.77444">
        <ele>233</ele>
        <time>2018-09-27T11:59:36Z</time>
      </trkpt>
      <trkpt lat="45.72102" lon="4.77455">
        <ele>231</ele>
        <time>2018-09-27T12:00:36Z</time>
      </trkpt>
      <trkpt lat="45.72132" lon="4.77472">
        <ele>228</ele>
        <time>2018-09-27T12:01:36Z</time>
      </trkpt>
      <trkpt lat="45.72159" lon="4.77488">
        <ele>224</ele>
        <time>2018-09-27T12:02:36Z</time>
      </trkpt>
      <trkpt lat="45.72195" lon="4.77505">
        <ele>219</ele>
        <time>2018-09-27T12:03:36Z</time>
      </trkpt>
      <trkpt lat="45.72219" lon="4.77515">
        <ele>217</ele>
        <time>2018-09-27T12:04:36Z</time>
      </trkpt>
      <trkpt lat="45.72304" lon="4.77586">
        <ele>210</ele>
        <time>2018-09-27T12:05:36Z</time>
      </trkpt>
      <trkpt lat="45.72349" lon="4.77628">
        <ele>208</ele>
        <time>2018-09-27T12:06:36Z</time>
      </trkpt>
      <trkpt lat="45.72392" lon="4.77635">
        <ele>205</ele>
        <time>2018-09-27T12:07:36Z</time>
      </trkpt>
      <trkpt lat="45.72411" lon="4.77637">
        <ele>203</ele>
        <time>2018-09-27T12:08:36Z</time>
      </trkpt>
      <trkpt lat="45.72423" lon="4.77627">
        <ele>204</ele>
        <time>2018-09-27T12:09:36Z</time>
      </trkpt>
      <trkpt lat="45.72445" lon="4.7761">
        <ele>205</ele>
        <time>2018-09-27T12:10:36Z</time>
      </trkpt>
      <trkpt lat="45.7246" lon="4.77578">
        <ele>207</ele>
        <time>2018-09-27T12:11:36Z</time>
      </trkpt>
      <trkpt lat="45.72471" lon="4.77554">
        <ele>207</ele>
        <time>2018-09-27T12:12:36Z</time>
      </trkpt>
      <trkpt lat="45.72504" lon="4.77533">
        <ele>207</ele>
        <time>2018-09-27T12:13:36Z</time>
      </trkpt>
      <trkpt lat="45.72569" lon="4.77511">
        <ele>209</ele>
        <time>2018-09-27T12:14:36Z</time>
      </trkpt>
      <trkpt lat="45.7258" lon="4.77563">
        <ele>208</ele>
        <time>2018-09-27T12:15:36Z</time>
      </trkpt>
      <trkpt lat="45.72579" lon="4.77611">
        <ele>206</ele>
        <time>2018-09-27T12:16:36Z</time>
      </trkpt>
      <trkpt lat="45.72582" lon="4.7765">
        <ele>204</ele>
        <time>2018-09-27T12:17:36Z</time>
      </trkpt>
      <trkpt lat="45.72597" lon="4.77707">
        <ele>198</ele>
        <time>2018-09-27T12:18:36Z</time>
      </trkpt>
      <trkpt lat="45.72608" lon="4.77757">
        <ele>192</ele>
        <time>2018-09-27T12:19:36Z</time>
      </trkpt>
      <trkpt lat="45.72627" lon="4.77881">
        <ele>179</ele>
        <time>2018-09-27T12:20:36Z</time>
      </trkpt>
      <trkpt lat="45.72662" lon="4.77871">
        <ele>179</ele>
        <time>2018-09-27T12:21:36Z</time>
      </trkpt>
      <trkpt lat="45.72697" lon="4.77861">
        <ele>180</ele>
        <time>2018-09-27T12:22:36Z</time>
      </trkpt>
      <trkpt lat="45.72719" lon="4.77853">
        <ele>180</ele>
        <time>2018-09-27T12:23:36Z</time>
      </trkpt>
      <trkpt lat="45.72751" lon="4.77845">
        <ele>181</ele>
        <time>2018-09-27T12:24:36Z</time>
      </trkpt>
      <trkpt lat="45.72765" lon="4.77836">
        <ele>181</ele>
        <time>2018-09-27T12:25:36Z</time>
      </trkpt>
      <trkpt lat="45.72782" lon="4.7783">
        <ele>181</ele>
        <time>2018-09-27T12:26:36Z</time>
      </trkpt>
      <trkpt lat="45.72797" lon="4.77821">
        <ele>182</ele>
        <time>2018-09-27T12:27:36Z</time>
      </trkpt>
      <trkpt lat="45.72804" lon="4.77821">
        <ele>182</ele>
        <time>2018-09-27T12:28:36Z</time>
      </trkpt>
      <trkpt lat="45.72807" lon="4.77835">
        <ele>181</ele>
        <time>2018-09-27T12:29:36Z</time>
      </trkpt>
      <trkpt lat="45.72812" lon="4.77865">
        <ele>181</ele>
        <time>2018-09-27T12:30:36Z</time>
      </trkpt>
      <trkpt lat="45.72814" lon="4.7788">
        <ele>182</ele>
        <time>2018-09-27T12:31:36Z</time>
      </trkpt>
      <trkpt lat="45.7281" lon="4.77889">
        <ele>182</ele>
        <time>2018-09-27T12:32:36Z</time>
      </trkpt>
      <trkpt lat="45.72807" lon="4.77896">
        <ele>182</ele>
        <time>2018-09-27T12:33:36Z</time>
      </trkpt>
      <trkpt lat="45.72808" lon="4.77905">
        <ele>182</ele>
        <time>2018-09-27T12:34:36Z</time>
      </trkpt>
      <trkpt lat="45.72811" lon="4.77913">
        <ele>182</ele>
        <time>2018-09-27T12:35:36Z</time>
      </trkpt>
      <trkpt lat="45.72815" lon="4.77917">
        <ele>182</ele>
        <time>2018-09-27T12:36:36Z</time>
      </trkpt>
      <trkpt lat="45.72817" lon="4.77937">
        <ele>183</ele>
        <time>2018-09-27T12:37:36Z</time>
      </trkpt>
      <trkpt lat="45.72819" lon="4.77948">
        <ele>184</ele>
        <time>2018-09-27T12:38:36Z</time>
      </trkpt>
      <trkpt lat="45.72821" lon="4.77958">
        <ele>184</ele>
        <time>2018-09-27T12:39:36Z</time>
      </trkpt>
      <trkpt lat="45.72809" lon="4.77959">
        <ele>184</ele>
        <time>2018-09-27T12:40:36Z</time>
      </trkpt>
      <trkpt lat="45.72797" lon="4.7796">
        <ele>184</ele>
        <time>2018-09-27T12:41:36Z</time>
      </trkpt>
      <trkpt lat="45.72753" lon="4.77971">
        <ele>182</ele>
        <time>2018-09-27T12:42:36Z</time>
      </trkpt>
      <trkpt lat="45.72737" lon="4.77975">
        <ele>182</ele>
        <time>2018-09-27T12:43:36Z</time>
      </trkpt>
      <trkpt lat="45.72699" lon="4.77996">
        <ele>180</ele>
        <time>2018-09-27T12:44:36Z</time>
      </trkpt>
      <trkpt lat="45.72681" lon="4.78004">
        <ele>179</ele>
        <time>2018-09-27T12:45:36Z</time>
      </trkpt>
      <trkpt lat="45.72666" lon="4.78009">
        <ele>178</ele>
        <time>2018-09-27T12:46:36Z</time>
      </trkpt>
      <trkpt lat="45.72655" lon="4.78008">
        <ele>178</ele>
        <time>2018-09-27T12:47:36Z</time>
      </trkpt>
      <trkpt lat="45.72643" lon="4.78012">
        <ele>178</ele>
        <time>2018-09-27T12:48:36Z</time>
      </trkpt>
      <trkpt lat="45.72644" lon="4.78033">
        <ele>181</ele>
        <time>2018-09-27T12:49:36Z</time>
      </trkpt>
      <trkpt lat="45.7265" lon="4.78058">
        <ele>184</ele>
        <time>2018-09-27T12:50:36Z</time>
      </trkpt>
      <trkpt lat="45.72652" lon="4.78074">
        <ele>186</ele>
        <time>2018-09-27T12:51:36Z</time>
      </trkpt>
      <trkpt lat="45.72655" lon="4.7809">
        <ele>189</ele>
        <time>2018-09-27T12:52:36Z</time>
      </trkpt>
      <trkpt lat="45.72656" lon="4.78111">
        <ele>192</ele>
        <time>2018-09-27T12:53:36Z</time>
      </trkpt>
      <trkpt lat="45.72656" lon="4.78128">
        <ele>194</ele>
        <time>2018-09-27T12:54:36Z</time>
      </trkpt>
      <trkpt lat="45.72642" lon="4.78149">
        <ele>195</ele>
        <time>2018-09-27T12:55:36Z</time>
      </trkpt>
      <trkpt lat="45.72632" lon="4.78159">
        <ele>195</ele>
        <time>2018-09-27T12:56:36Z</time>
      </trkpt>
      <trkpt lat="45.7263" lon="4.78174">
        <ele>197</ele>
        <time>2018-09-27T12:57:36Z</time>
      </trkpt>
      <trkpt lat="45.72628" lon="4.78184">
        <ele>199</ele>
        <time>2018-09-27T12:58:36Z</time>
      </trkpt>
      <trkpt lat="45.72625" lon="4.7822">
        <ele>205</ele>
        <time>2018-09-27T12:59:36Z</time>
      </trkpt>
      <trkpt lat="45.72625" lon="4.78236">
        <ele>208</ele>
        <time>2018-09-27T13:00:36Z</time>
      </trkpt>
      <trkpt lat="45.7263" lon="4.78249">
        <ele>211</ele>
        <time>2018-09-27T13:01:36Z</time>
      </trkpt>
      <trkpt lat="45.72632" lon="4.78263">
        <ele>213</ele>
        <time>2018-09-27T13:02:36Z</time>
      </trkpt>
      <trkpt lat="45.72656" lon="4.78333">
        <ele>225</ele>
        <time>2018-09-27T13:03:36Z</time>
      </trkpt>
      <trkpt lat="45.72661" lon="4.78347">
        <ele>226</ele>
        <time>2018-09-27T13:04:36Z</time>
      </trkpt>
      <trkpt lat="45.72664" lon="4.78363">
        <ele>227</ele>
        <time>2018-09-27T13:05:36Z</time>
      </trkpt>
      <trkpt lat="45.72675" lon="4.78406">
        <ele>232</ele>
        <time>2018-09-27T13:06:36Z</time>
      </trkpt>
      <trkpt lat="45.72678" lon="4.78414">
        <ele>233</ele>
        <time>2018-09-27T13:07:36Z</time>
      </trkpt>
      <trkpt lat="45.72682" lon="4.78435">
        <ele>235</ele>
        <time>2018-09-27T13:08:36Z</time>
      </trkpt>
      <trkpt lat="45.72686" lon="4.78452">
        <ele>237</ele>
        <time>2018-09-27T13:09:36Z</time>
      </trkpt>
      <trkpt lat="45.72688" lon="4.78466">
        <ele>238</ele>
        <time>2018-09-27T13:10:36Z</time>
      </trkpt>
      <trkpt lat="45.72687" lon="4.78473">
        <ele>239</ele>
        <time>2018-09-27T13:11:36Z</time>
      </trkpt>
      <trkpt lat="45.72712" lon="4.78648">
        <ele>253</ele>
        <time>2018-09-27T13:12:36Z</time>
      </trkpt>
      <trkpt lat="45.72653" lon="4.78667">
        <ele>253</ele>
        <time>2018-09-27T13:13:36Z</time>
      </trkpt>
      <trkpt lat="45.72636" lon="4.78684">
        <ele>255</ele>
        <time>2018-09-27T13:14:36Z</time>
      </trkpt>
      <trkpt lat="45.72626" lon="4.78698">
        <ele>257</ele>
        <time>2018-09-27T13:15:36Z</time>
      </trkpt>
      <trkpt lat="45.72617" lon="4.7872">
        <ele>259</ele>
        <time>2018-09-27T13:16:36Z</time>
      </trkpt>
      <trkpt lat="45.72612" lon="4.78739">
        <ele>260</ele>
        <time>2018-09-27T13:17:36Z</time>
      </trkpt>
      <trkpt lat="45.7261" lon="4.78755">
        <ele>261</ele>
        <time>2018-09-27T13:18:36Z</time>
      </trkpt>
      <trkpt lat="45.72612" lon="4.78769">
        <ele>261</ele>
        <time>2018-09-27T13:19:36Z</time>
      </trkpt>
      <trkpt lat="45.7262" lon="4.78785">
        <ele>263</ele>
        <time>2018-09-27T13:20:36Z</time>
      </trkpt>
      <trkpt lat="45.72626" lon="4.78805">
        <ele>264</ele>
        <time>2018-09-27T13:21:36Z</time>
      </trkpt>
      <trkpt lat="45.72637" lon="4.78851">
        <ele>267</ele>
        <time>2018-09-27T13:22:36Z</time>
      </trkpt>
      <trkpt lat="45.72643" lon="4.78872">
        <ele>269</ele>
        <time>2018-09-27T13:23:36Z</time>
      </trkpt>
      <trkpt lat="45.72662" lon="4.78902">
        <ele>275</ele>
        <time>2018-09-27T13:24:36Z</time>
      </trkpt>
      <trkpt lat="45.72671" lon="4.78914">
        <ele>277</ele>
        <time>2018-09-27T13:25:36Z</time>
      </trkpt>
      <trkpt lat="45.72718" lon="4.78962">
        <ele>279</ele>
        <time>2018-09-27T13:26:36Z</time>
      </trkpt>
      <trkpt lat="45.72757" lon="4.78996">
        <ele>281</ele>
        <time>2018-09-27T13:27:36Z</time>
      </trkpt>
      <trkpt lat="45.72729" lon="4.79038">
        <ele>277</ele>
        <time>2018-09-27T13:28:36Z</time>
      </trkpt>
      <trkpt lat="45.72706" lon="4.79072">
        <ele>273</ele>
        <time>2018-09-27T13:29:36Z</time>
      </trkpt>
      <trkpt lat="45.72687" lon="4.79093">
        <ele>269</ele>
        <time>2018-09-27T13:30:36Z</time>
      </trkpt>
      <trkpt lat="45.72676" lon="4.79117">
        <ele>267</ele>
        <time>2018-09-27T13:31:36Z</time>
      </trkpt>
      <trkpt lat="45.72664" lon="4.79183">
        <ele>262</ele>
        <time>2018-09-27T13:32:36Z</time>
      </trkpt>
      <trkpt lat="45.72672" lon="4.79246">
        <ele>262</ele>
        <time>2018-09-27T13:33:36Z</time>
      </trkpt>
      <trkpt lat="45.72671" lon="4.79288">
        <ele>260</ele>
        <time>2018-09-27T13:34:36Z</time>
      </trkpt>
      <trkpt lat="45.7266" lon="4.79315">
        <ele>256</ele>
        <time>2018-09-27T13:35:36Z</time>
      </trkpt>
      <trkpt lat="45.72644" lon="4.7931">
        <ele>253</ele>
        <time>2018-09-27T13:36:36Z</time>
      </trkpt>
      <trkpt lat="45.72626" lon="4.79281">
        <ele>249</ele>
        <time>2018-09-27T13:37:36Z</time>
      </trkpt>
      <trkpt lat="45.72615" lon="4.79265">
        <ele>246</ele>
        <time>2018-09-27T13:38:36Z</time>
      </trkpt>
      <trkpt lat="45.72605" lon="4.79273">
        <ele>244</ele>
        <time>2018-09-27T13:39:36Z</time>
      </trkpt>
      <trkpt lat="45.7257" lon="4.79365">
        <ele>235</ele>
        <time>2018-09-27T13:40:36Z</time>
      </trkpt>
      <trkpt lat="45.72545" lon="4.79395">
        <ele>228</ele>
        <time>2018-09-27T13:41:36Z</time>
      </trkpt>
      <trkpt lat="45.72567" lon="4.79423">
        <ele>234</ele>
        <time>2018-09-27T13:42:36Z</time>
      </trkpt>
      <trkpt lat="45.7258" lon="4.7945">
        <ele>238</ele>
        <time>2018-09-27T13:43:36Z</time>
      </trkpt>
      <trkpt lat="45.72591" lon="4.79489">
        <ele>242</ele>
        <time>2018-09-27T13:44:36Z</time>
      </trkpt>
      <trkpt lat="45.72607" lon="4.79554">
        <ele>246</ele>
        <time>2018-09-27T13:45:36Z</time>
      </trkpt>
      <trkpt lat="45.7262" lon="4.79597">
        <ele>249</ele>
        <time>2018-09-27T13:46:36Z</time>
      </trkpt>
      <trkpt lat="45.72634" lon="4.79637">
        <ele>254</ele>
        <time>2018-09-27T13:47:36Z</time>
      </trkpt>
      <trkpt lat="45.72639" lon="4.79673">
        <ele>256</ele>
        <time>2018-09-27T13:48:36Z</time>
      </trkpt>
      <trkpt lat="45.72638" lon="4.79704">
        <ele>257</ele>
        <time>2018-09-27T13:49:36Z</time>
      </trkpt>
      <trkpt lat="45.72639" lon="4.79716">
        <ele>258</ele>
        <time>2018-09-27T13:50:36Z</time>
      </trkpt>
      <trkpt lat="45.72608" lon="4.79712">
        <ele>252</ele>
        <time>2018-09-27T13:51:36Z</time>
      </trkpt>
      <trkpt lat="45.72628" lon="4.80001">
        <ele>250</ele>
        <time>2018-09-27T13:52:36Z</time>
      </trkpt>
      <trkpt lat="45.72655" lon="4.80079">
        <ele>251</ele>
        <time>2018-09-27T13:53:36Z</time>
      </trkpt>
      <trkpt lat="45.72668" lon="4.80108">
        <ele>252</ele>
        <time>2018-09-27T13:54:36Z</time>
      </trkpt>
      <trkpt lat="45.72667" lon="4.80141">
        <ele>251</ele>
        <time>2018-09-27T13:55:36Z</time>
      </trkpt>
      <trkpt lat="45.72651" lon="4.80224">
        <ele>248</ele>
        <time>2018-09-27T13:56:36Z</time>
      </trkpt>
      <trkpt lat="45.7265" lon="4.80226">
        <ele>248</ele>
        <time>2018-09-27T13:57:36Z</time>
      </trkpt>
      <trkpt lat="45.72639" lon="4.80311">
        <ele>244</ele>
        <time>2018-09-27T13:58:36Z</time>
      </trkpt>
      <trkpt lat="45.72605" lon="4.80438">
        <ele>230</ele>
        <time>2018-09-27T13:59:36Z</time>
      </trkpt>
      <trkpt lat="45.72601" lon="4.805">
        <ele>227</ele>
        <time>2018-09-27T14:00:36Z</time>
      </trkpt>
      <trkpt lat="45.726" lon="4.80527">
        <ele>227</ele>
        <time>2018-09-27T14:01:36Z</time>
      </trkpt>
      <trkpt lat="45.7262" lon="4.80546">
        <ele>228</ele>
        <time>2018-09-27T14:02:36Z</time>
      </trkpt>
      <trkpt lat="45.72626" lon="4.8056">
        <ele>228</ele>
        <time>2018-09-27T14:03:36Z</time>
      </trkpt>
      <trkpt lat="45.72623" lon="4.8058">
        <ele>228</ele>
        <time>2018-09-27T14:04:36Z</time>
      </trkpt>
      <trkpt lat="45.72622" lon="4.80593">
        <ele>228</ele>
        <time>2018-09-27T14:05:36Z</time>
      </trkpt>
      <trkpt lat="45.72629" lon="4.80587">
        <ele>228</ele>
        <time>2018-09-27T14:06:36Z</time>
      </trkpt>
      <trkpt lat="45.72628" lon="4.8062">
        <ele>230</ele>
        <time>2018-09-27T14:07:36Z</time>
      </trkpt>
      <trkpt lat="45.72628" lon="4.80634">
        <ele>230</ele>
        <time>2018-09-27T14:08:36Z</time>
      </trkpt>
      <trkpt lat="45.72601" lon="4.80653">
        <ele>231</ele>
        <time>2018-09-27T14:09:36Z</time>
      </trkpt>
      <trkpt lat="45.7258" lon="4.80667">
        <ele>232</ele>
        <time>2018-09-27T14:10:36Z</time>
      </trkpt>
      <trkpt lat="45.72557" lon="4.80679">
        <ele>232</ele>
        <time>2018-09-27T14:11:36Z</time>
      </trkpt>
      <trkpt lat="45.72538" lon="4.80693">
        <ele>232</ele>
        <time>2018-09-27T14:12:36Z</time>
      </trkpt>
      <trkpt lat="45.72523" lon="4.80704">
        <ele>232</ele>
        <time>2018-09-27T14:13:36Z</time>
      </trkpt>
      <trkpt lat="45.72508" lon="4.80719">
        <ele>232</ele>
        <time>2018-09-27T14:14:36Z</time>
      </trkpt>
      <trkpt lat="45.72508" lon="4.80721">
        <ele>232</ele>
        <time>2018-09-27T14:15:36Z</time>
      </trkpt>
      <trkpt lat="45.72515" lon="4.80732">
        <ele>233</ele>
        <time>2018-09-27T14:16:36Z</time>
      </trkpt>
      <trkpt lat="45.72511" lon="4.80744">
        <ele>233</ele>
        <time>2018-09-27T14:17:36Z</time>
      </trkpt>
      <trkpt lat="45.72511" lon="4.80749">
        <ele>234</ele>
        <time>2018-09-27T14:18:36Z</time>
      </trkpt>
      <trkpt lat="45.72512" lon="4.80752">
        <ele>234</ele>
        <time>2018-09-27T14:19:36Z</time>
      </trkpt>
      <trkpt lat="45.72532" lon="4.80753">
        <ele>235</ele>
        <time>2018-09-27T14:20:36Z</time>
      </trkpt>
      <trkpt lat="45.72538" lon="4.80756">
        <ele>235</ele>
        <time>2018-09-27T14:21:36Z</time>
      </trkpt>
      <trkpt lat="45.72552" lon="4.80767">
        <ele>236</ele>
        <time>2018-09-27T14:22:36Z</time>
      </trkpt>
      <trkpt lat="45.72571" lon="4.80787">
        <ele>238</ele>
        <time>2018-09-27T14:23:36Z</time>
      </trkpt>
      <trkpt lat="45.72592" lon="4.80828">
        <ele>239</ele>
        <time>2018-09-27T14:24:36Z</time>
      </trkpt>
      <trkpt lat="45.72636" lon="4.80899">
        <ele>235</ele>
        <time>2018-09-27T14:25:36Z</time>
      </trkpt>
      <trkpt lat="45.72659" lon="4.80926">
        <ele>234</ele>
        <time>2018-09-27T14:26:36Z</time>
      </trkpt>
      <trkpt lat="45.72678" lon="4.80937">
        <ele>234</ele>
        <time>2018-09-27T14:27:36Z</time>
      </trkpt>
      <trkpt lat="45.72696" lon="4.80936">
        <ele>235</ele>
        <time>2018-09-27T14:28:36Z</time>
      </trkpt>
      <trkpt lat="45.72716" lon="4.80935">
        <ele>237</ele>
        <time>2018-09-27T14:29:36Z</time>
      </trkpt>
      <trkpt lat="45.72743" lon="4.8093">
        <ele>240</ele>
        <time>2018-09-27T14:30:36Z</time>
      </trkpt>
      <trkpt lat="45.72761" lon="4.80927">
        <ele>241</ele>
        <time>2018-09-27T14:31:36Z</time>
      </trkpt>
      <trkpt lat="45.72789" lon="4.80951">
        <ele>240</ele>
        <time>2018-09-27T14:32:36Z</time>
      </trkpt>
      <trkpt lat="45.72809" lon="4.80964">
        <ele>240</ele>
        <time>2018-09-27T14:33:36Z</time>
      </trkpt>
      <trkpt lat="45.72815" lon="4.80973">
        <ele>241</ele>
        <time>2018-09-27T14:34:36Z</time>
      </trkpt>
      <trkpt lat="45.72828" lon="4.80997">
        <ele>242</ele>
        <time>2018-09-27T14:35:36Z</time>
      </trkpt>
      <trkpt lat="45.72838" lon="4.81012">
        <ele>243</ele>
        <time>2018-09-27T14:36:36Z</time>
      </trkpt>
      <trkpt lat="45.72847" lon="4.81024">
        <ele>243</ele>
        <time>2018-09-27T14:37:36Z</time>
      </trkpt>
      <trkpt lat="45.72868" lon="4.81032">
        <ele>243</ele>
        <time>2018-09-27T14:38:36Z</time>
      </trkpt>
      <trkpt lat="45.72888" lon="4.81036">
        <ele>243</ele>
        <time>2018-09-27T14:39:36Z</time>
      </trkpt>
      <trkpt lat="45.72899" lon="4.8104">
        <ele>243</ele>
        <time>2018-09-27T14:40:36Z</time>
      </trkpt>
      <trkpt lat="45.72908" lon="4.81053">
        <ele>243</ele>
        <time>2018-09-27T14:41:36Z</time>
      </trkpt>
      <trkpt lat="45.72961" lon="4.81174">
        <ele>235</ele>
        <time>2018-09-27T14:42:36Z</time>
      </trkpt>
      <trkpt lat="45.72986" lon="4.8123">
        <ele>228</ele>
        <time>2018-09-27T14:43:36Z</time>
      </trkpt>
      <trkpt lat="45.7299" lon="4.81242">
        <ele>226</ele>
        <time>2018-09-27T14:44:36Z</time>
      </trkpt>
      <trkpt lat="45.72991" lon="4.81255">
        <ele>225</ele>
        <time>2018-09-27T14:45:36Z</time>
      </trkpt>
      <trkpt lat="45.7299" lon="4.81269">
        <ele>223</ele>
        <time>2018-09-27T14:46:36Z</time>
      </trkpt>
      <trkpt lat="45.72993" lon="4.81284">
        <ele>220</ele>
        <time>2018-09-27T14:47:36Z</time>
      </trkpt>
      <trkpt lat="45.73004" lon="4.81321">
        <ele>214</ele>
        <time>2018-09-27T14:48:36Z</time>
      </trkpt>
      <trkpt lat="45.7301" lon="4.81342">
        <ele>209</ele>
        <time>2018-09-27T14:49:36Z</time>
      </trkpt>
      <trkpt lat="45.73016" lon="4.81354">
        <ele>205</ele>
        <time>2018-09-27T14:50:36Z</time>
      </trkpt>
      <trkpt lat="45.73025" lon="4.8136">
        <ele>202</ele>
        <time>2018-09-27T14:51:36Z</time>
      </trkpt>
      <trkpt lat="45.73037" lon="4.81372">
        <ele>197</ele>
        <time>2018-09-27T14:52:36Z</time>
      </trkpt>
      <trkpt lat="45.73079" lon="4.81457">
        <ele>172</ele>
        <time>2018-09-27T14:53:36Z</time>
      </trkpt>
      <trkpt lat="45.73123" lon="4.81384">
        <ele>179</ele>
        <time>2018-09-27T14:54:36Z</time>
      </trkpt>
      <trkpt lat="45.73138" lon="4.81365">
        <ele>181</ele>
        <time>2018-09-27T14:55:36Z</time>
      </trkpt>
      <trkpt lat="45.73165" lon="4.81348">
        <ele>181</ele>
        <time>2018-09-27T14:56:36Z</time>
      </trkpt>
      <trkpt lat="45.73236" lon="4.81315">
        <ele>180</ele>
        <time>2018-09-27T14:57:36Z</time>
      </trkpt>
      <trkpt lat="45.73238" lon="4.8132">
        <ele>179</ele>
        <time>2018-09-27T14:58:36Z</time>
      </trkpt>
      <trkpt lat="45.73143" lon="4.81371">
        <ele>179</ele>
        <time>2018-09-27T14:59:36Z</time>
      </trkpt>
      <trkpt lat="45.73116" lon="4.81408">
        <ele>174</ele>
        <time>2018-09-27T15:00:36Z</time>
      </trkpt>
      <trkpt lat="45.73097" lon="4.81447">
        <ele>171</ele>
        <time>2018-09-27T15:01:36Z</time>
      </trkpt>
      <trkpt lat="45.73081" lon="4.81477">
        <ele>170</ele>
        <time>2018-09-27T15:02:36Z</time>
      </trkpt>
      <trkpt lat="45.73017" lon="4.81583">
        <ele>166</ele>
        <time>2018-09-27T15:03:36Z</time>
      </trkpt>
      <trkpt lat="45.73014" lon="4.81574">
        <ele>167</ele>
        <time>2018-09-27T15:04:36Z</time>
      </trkpt>
      <trkpt lat="45.73027" lon="4.81567">
        <ele>167</ele>
        <time>2018-09-27T15:05:36Z</time>
      </trkpt>
      <trkpt lat="45.73039" lon="4.81563">
        <ele>167</ele>
        <time>2018-09-27T15:06:36Z</time>
      </trkpt>
      <trkpt lat="45.73066" lon="4.81568">
        <ele>166</ele>
        <time>2018-09-27T15:07:36Z</time>
      </trkpt>
      <trkpt lat="45.73086" lon="4.81582">
        <ele>165</ele>
        <time>2018-09-27T15:08:36Z</time>
      </trkpt>
      <trkpt lat="45.73117" lon="4.81608">
        <ele>165</ele>
        <time>2018-09-27T15:09:36Z</time>
      </trkpt>
      <trkpt lat="45.7319" lon="4.81669">
        <ele>166</ele>
        <time>2018-09-27T15:10:36Z</time>
      </trkpt>
      <trkpt lat="45.73214" lon="4.81694">
        <ele>168</ele>
        <time>2018-09-27T15:11:36Z</time>
      </trkpt>
      <trkpt lat="45.73267" lon="4.81753">
        <ele>169</ele>
        <time>2018-09-27T15:12:36Z</time>
      </trkpt>
      <trkpt lat="45.73295" lon="4.81779">
        <ele>168</ele>
        <time>2018-09-27T15:13:36Z</time>
      </trkpt>
      <trkpt lat="45.73308" lon="4.81789">
        <ele>168</ele>
        <time>2018-09-27T15:14:36Z</time>
      </trkpt>
      <trkpt lat="45.73344" lon="4.81823">
        <ele>168</ele>
        <time>2018-09-27T15:15:36Z</time>
      </trkpt>
      <trkpt lat="45.7336" lon="4.8184">
        <ele>168</ele>
        <time>2018-09-27T15:16:36Z</time>
      </trkpt>
      <trkpt lat="45.73369" lon="4.81847">
        <ele>168</ele>
        <time>2018-09-27T15:17:36Z</time>
      </trkpt>
      <trkpt lat="45.73364" lon="4.81864">
        <ele>167</ele>
        <time>2018-09-27T15:18:36Z</time>
      </trkpt>
      <trkpt lat="45.73354" lon="4.81902">
        <ele>166</ele>
        <time>2018-09-27T15:19:36Z</time>
      </trkpt>
      <trkpt lat="45.73343" lon="4.81934">
        <ele>165</ele>
        <time>2018-09-27T15:20:36Z</time>
      </trkpt>
      <trkpt lat="45.73337" lon="4.81952">
        <ele>165</ele>
        <time>2018-09-27T15:21:36Z</time>
      </trkpt>
      <trkpt lat="45.73319" lon="4.81976">
        <ele>164</ele>
        <time>2018-09-27T15:22:36Z</time>
      </trkpt>
      <trkpt lat="45.73212" lon="4.82111">
        <ele>164</ele>
        <time>2018-09-27T15:23:36Z</time>
      </trkpt>
      <trkpt lat="45.73196" lon="4.82132">
        <ele>165</ele>
        <time>2018-09-27T15:24:36Z</time>
      </trkpt>
      <trkpt lat="45.73187" lon="4.82152">
        <ele>165</ele>
        <time>2018-09-27T15:25:36Z</time>
      </trkpt>
      <trkpt lat="45.73183" lon="4.82169">
        <ele>166</ele>
        <time>2018-09-27T15:26:36Z</time>
      </trkpt>
      <trkpt lat="45.73176" lon="4.8222">
        <ele>167</ele>
        <time>2018-09-27T15:27:36Z</time>
      </trkpt>
      <trkpt lat="45.73169" lon="4.8225">
        <ele>167</ele>
        <time>2018-09-27T15:28:36Z</time>
      </trkpt>
      <trkpt lat="45.73164" lon="4.82274">
        <ele>167</ele>
        <time>2018-09-27T15:29:36Z</time>
      </trkpt>
      <trkpt lat="45.73113" lon="4.82265">
        <ele>167</ele>
        <time>2018-09-27T15:30:36Z</time>
      </trkpt>
      <trkpt lat="45.73086" lon="4.82256">
        <ele>168</ele>
        <time>2018-09-27T15:31:36Z</time>
      </trkpt>
      <trkpt lat="45.73068" lon="4.82253">
        <ele>167</ele>
        <time>2018-09-27T15:32:36Z</time>
      </trkpt>
      <trkpt lat="45.73038" lon="4.82255">
        <ele>166</ele>
        <time>2018-09-27T15:33:36Z</time>
      </trkpt>
      <trkpt lat="45.73013" lon="4.82252">
        <ele>165</ele>
        <time>2018-09-27T15:34:36Z</time>
      </trkpt>
      <trkpt lat="45.72993" lon="4.82258">
        <ele>165</ele>
        <time>2018-09-27T15:35:36Z</time>
      </trkpt>
      <trkpt lat="45.72989" lon="4.82274">
        <ele>165</ele>
        <time>2018-09-27T15:36:36Z</time>
      </trkpt>
      <trkpt lat="45.72984" lon="4.82297">
        <ele>166</ele>
        <time>2018-09-27T15:37:36Z</time>
      </trkpt>
      <trkpt lat="45.72982" lon="4.82325">
        <ele>166</ele>
        <time>2018-09-27T15:38:36Z</time>
      </trkpt>
      <trkpt lat="45.72982" lon="4.82341">
        <ele>167</ele>
        <time>2018-09-27T15:39:36Z</time>
      </trkpt>
      <trkpt lat="45.72986" lon="4.82356">
        <ele>167</ele>
        <time>2018-09-27T15:40:36Z</time>
      </trkpt>
      <trkpt lat="45.72983" lon="4.82367">
        <ele>168</ele>
        <time>2018-09-27T15:41:36Z</time>
      </trkpt>
      <trkpt lat="45.72979" lon="4.82381">
        <ele>168</ele>
        <time>2018-09-27T15:42:36Z</time>
      </trkpt>
      <trkpt lat="45.72973" lon="4.82389">
        <ele>168</ele>
        <time>2018-09-27T15:43:36Z</time>
      </trkpt>
      <trkpt lat="45.72974" lon="4.82399">
        <ele>169</ele>
        <time>2018-09-27T15:44:36Z</time>
      </trkpt>
      <trkpt lat="45.72976" lon="4.82405">
        <ele>169</ele>
        <time>2018-09-27T15:45:36Z</time>
      </trkpt>
      <trkpt lat="45.7298" lon="4.8241">
        <ele>169</ele>
        <time>2018-09-27T15:46:36Z</time>
      </trkpt>
      <trkpt lat="45.72986" lon="4.82417">
        <ele>170</ele>
        <time>2018-09-27T15:47:36Z</time>
      </trkpt>
      <trkpt lat="45.73" lon="4.82425">
        <ele>170</ele>
        <time>2018-09-27T15:48:36Z</time>
      </trkpt>
      <trkpt lat="45.73001" lon="4.82472">
        <ele>173</ele>
        <time>2018-09-27T15:49:36Z</time>
      </trkpt>
      <trkpt lat="45.73014" lon="4.82473">
        <ele>173</ele>
        <time>2018-09-27T15:50:36Z</time>
      </trkpt>
    </trkseg>
  </trk>
</gpx>